| time (UTC) | temp F | wind direction | speed knots | gust knots | rain 1hr in | rain 24hr in | rain mn in | humidity % | barometer mb |
| 20260904124102 | 80 | 52 | 2.6 | 3.5 | 0.00 | 0.02 | 0.00 | 95 | 1012.0 |
| 20260904124003 | 80 | 52 | 3.5 | 3.5 | 0.00 | 0.02 | 0.00 | 95 | 1011.9 |
| 20260904123903 | 80 | 51 | 2.6 | 3.5 | 0.00 | 0.02 | 0.00 | 95 | 1011.9 |
| 20260904123801 | 80 | 52 | 2.6 | 3.5 | 0.00 | 0.02 | 0.00 | 95 | 1011.9 |
| 20260904123703 | 80 | 52 | 1.7 | 3.5 | 0.00 | 0.02 | 0.00 | 95 | 1011.8 |
| 20260904123604 | 80 | 54 | 2.6 | 3.5 | 0.00 | 0.02 | 0.00 | 95 | 1011.8 |
| 20260904123503 | 80 | 54 | 2.6 | 3.5 | 0.00 | 0.02 | 0.00 | 95 | 1011.8 |
| 20260904123402 | 80 | 54 | 2.6 | 3.5 | 0.00 | 0.02 | 0.00 | 95 | 1011.7 |
| 20260904123302 | 80 | 54 | 1.7 | 3.5 | 0.00 | 0.02 | 0.00 | 95 | 1011.7 |
| 20260904123204 | 80 | 66 | 1.7 | 2.6 | 0.00 | 0.02 | 0.00 | 95 | 1011.7 |
| 20260904123102 | 80 | 66 | 1.7 | 2.6 | 0.00 | 0.02 | 0.00 | 95 | 1011.6 |
| 20260904123004 | 80 | 68 | 1.7 | 2.6 | 0.00 | 0.02 | 0.00 | 95 | 1011.6 |
| 20260904122904 | 80 | 68 | 1.7 | 2.6 | 0.00 | 0.02 | 0.00 | 95 | 1011.6 |
| 20260904122804 | 80 | 68 | 1.7 | 2.6 | 0.00 | 0.02 | 0.00 | 95 | 1011.7 |
| 20260904122702 | 80 | 68 | 1.7 | 2.6 | 0.00 | 0.02 | 0.00 | 95 | 1011.6 |
| 20260904122603 | 80 | 68 | 1.7 | 2.6 | 0.00 | 0.02 | 0.00 | 95 | 1011.6 |
| 20260904122503 | 80 | 69 | 1.7 | 2.6 | 0.00 | 0.02 | 0.00 | 95 | 1011.5 |
| 20260904122403 | 80 | 69 | 1.7 | 1.7 | 0.00 | 0.02 | 0.00 | 95 | 1011.6 |
| 20260904122306 | 80 | 69 | 1.7 | 1.7 | 0.00 | 0.02 | 0.00 | 95 | 1011.5 |
| 20260904122203 | 80 | 69 | 0.9 | 1.7 | 0.00 | 0.02 | 0.00 | 95 | 1011.5 |
| 20260904122103 | 80 | 69 | 0.0 | 1.7 | 0.00 | 0.02 | 0.00 | 95 | 1011.5 |
| 20260904121959 | 80 | 69 | 0.0 | 2.6 | 0.00 | 0.02 | 0.00 | 95 | 1011.5 |
| 20260904121859 | 80 | 69 | 0.0 | 2.6 | 0.00 | 0.02 | 0.00 | 95 | 1011.4 |
| 20260904121758 | 80 | 69 | 0.0 | 2.6 | 0.00 | 0.02 | 0.00 | 95 | 1011.5 |
| 20260904121656 | 80 | 69 | 0.0 | 3.5 | 0.00 | 0.02 | 0.00 | 95 | 1011.5 |
| 20260904121554 | 80 | 69 | 0.0 | 3.5 | 0.00 | 0.02 | 0.00 | 95 | 1011.4 |
| 20260904121454 | 80 | 69 | 0.0 | 3.5 | 0.00 | 0.02 | 0.00 | 95 | 1011.4 |
| 20260904121351 | 80 | 69 | 0.0 | 3.5 | 0.00 | 0.02 | 0.00 | 95 | 1011.4 |
| 20260904121251 | 80 | 69 | 0.9 | 4.3 | 0.00 | 0.02 | 0.00 | 95 | 1011.3 |
| 20260904121148 | 80 | 69 | 1.7 | 4.3 | 0.00 | 0.02 | 0.00 | 95 | 1011.3 |
| 20260904121048 | 80 | 69 | 1.7 | 4.3 | 0.00 | 0.02 | 0.00 | 95 | 1011.3 |
| 20260904120948 | 80 | 69 | 1.7 | 4.3 | 0.00 | 0.02 | 0.00 | 95 | 1011.4 |
| 20260904120848 | 80 | 69 | 1.7 | 4.3 | 0.00 | 0.02 | 0.00 | 95 | 1011.4 |
| 20260904120749 | 80 | 69 | 1.7 | 4.3 | 0.00 | 0.02 | 0.00 | 95 | 1011.4 |
| 20260904120649 | 80 | 68 | 2.6 | 4.3 | 0.00 | 0.02 | 0.00 | 95 | 1011.3 |
| 20260904120549 | 80 | 68 | 2.6 | 4.3 | 0.00 | 0.02 | 0.00 | 95 | 1011.3 |
| 20260904120448 | 80 | 68 | 2.6 | 4.3 | 0.00 | 0.02 | 0.00 | 95 | 1011.3 |
| 20260904120348 | 80 | 66 | 2.6 | 4.3 | 0.00 | 0.02 | 0.00 | 95 | 1011.3 |
| 20260904120248 | 80 | 66 | 2.6 | 4.3 | 0.00 | 0.02 | 0.00 | 95 | 1011.4 |
| 20260904120148 | 80 | 65 | 2.6 | 4.3 | 0.00 | 0.02 | 0.00 | 95 | 1011.3 |
| 20260904120049 | 80 | 65 | 2.6 | 4.3 | 0.00 | 0.02 | 0.00 | 95 | 1011.4 |
| 20260904115948 | 80 | 63 | 2.6 | 4.3 | 0.00 | 0.02 | 0.00 | 95 | 1011.4 |
| 20260904115850 | 80 | 63 | 1.7 | 4.3 | 0.00 | 0.02 | 0.00 | 95 | 1011.4 |
| 20260904115749 | 80 | 58 | 0.0 | 0.0 | 0.00 | 0.03 | 0.00 | 95 | 1011.3 |
| 20260904115648 | 80 | 58 | 0.0 | 0.0 | 0.00 | 0.03 | 0.00 | 95 | 1011.3 |
| 20260904115549 | 80 | 58 | 0.0 | 0.0 | 0.00 | 0.03 | 0.00 | 95 | 1011.4 |
| 20260904115448 | 80 | 58 | 0.0 | 0.0 | 0.00 | 0.03 | 0.00 | 95 | 1011.3 |
| 20260904115348 | 80 | 58 | 0.0 | 0.0 | 0.00 | 0.03 | 0.00 | 95 | 1011.4 |
| 20260904115248 | 80 | 58 | 0.0 | 0.0 | 0.00 | 0.03 | 0.00 | 95 | 1011.3 |
| 20260904115149 | 80 | 58 | 0.0 | 0.0 | 0.00 | 0.03 | 0.00 | 95 | 1011.3 |
| 20260904115048 | 80 | 58 | 0.0 | 0.0 | 0.00 | 0.03 | 0.00 | 95 | 1011.3 |
| 20260904114948 | 80 | 58 | 0.0 | 0.0 | 0.00 | 0.03 | 0.00 | 95 | 1011.3 |
| 20260904114850 | 80 | 58 | 0.0 | 0.0 | 0.00 | 0.03 | 0.00 | 95 | 1011.2 |
| 20260904114749 | 80 | 58 | 0.0 | 0.0 | 0.00 | 0.03 | 0.00 | 95 | 1011.3 |
| 20260904114648 | 80 | 58 | 0.0 | 0.0 | 0.00 | 0.03 | 0.00 | 95 | 1011.3 |
| 20260904114548 | 80 | 58 | 0.0 | 0.0 | 0.00 | 0.03 | 0.00 | 95 | 1011.3 |
| 20260904114449 | 80 | 58 | 0.0 | 0.0 | 0.00 | 0.03 | 0.00 | 95 | 1011.3 |
| 20260904114349 | 80 | 58 | 0.0 | 0.0 | 0.00 | 0.03 | 0.00 | 95 | 1011.3 |
| 20260904114247 | 80 | 56 | 0.0 | 0.0 | 0.00 | 0.03 | 0.00 | 95 | 1011.2 |
| 20260904114149 | 80 | 58 | 0.0 | 0.0 | 0.00 | 0.03 | 0.00 | 95 | 1011.2 |
| 20260904114048 | 80 | 58 | 0.0 | 0.0 | 0.00 | 0.04 | 0.00 | 95 | 1011.2 |
| 20260904113949 | 80 | 58 | 0.0 | 0.0 | 0.00 | 0.04 | 0.00 | 95 | 1011.3 |
| 20260904113849 | 80 | 58 | 0.0 | 0.0 | 0.00 | 0.04 | 0.00 | 95 | 1011.2 |
| 20260904113748 | 80 | 58 | 0.0 | 0.0 | 0.00 | 0.04 | 0.00 | 95 | 1011.3 |
| 20260904113647 | 80 | 58 | 0.0 | 0.0 | 0.00 | 0.04 | 0.00 | 95 | 1011.3 |
| 20260904113548 | 80 | 58 | 0.0 | 0.0 | 0.00 | 0.04 | 0.00 | 95 | 1011.3 |
| 20260904113449 | 80 | 58 | 0.0 | 0.0 | 0.00 | 0.04 | 0.00 | 95 | 1011.3 |
| 20260904113348 | 80 | 58 | 0.0 | 0.0 | 0.00 | 0.04 | 0.00 | 95 | 1011.3 |
| 20260904113247 | 80 | 58 | 0.0 | 0.0 | 0.00 | 0.05 | 0.00 | 95 | 1011.4 |
| 20260904113149 | 80 | 58 | 0.0 | 0.0 | 0.00 | 0.05 | 0.00 | 95 | 1011.4 |
| 20260904113048 | 80 | 58 | 0.0 | 0.0 | 0.00 | 0.05 | 0.00 | 95 | 1011.4 |
| 20260904112947 | 80 | 58 | 0.0 | 0.0 | 0.00 | 0.06 | 0.00 | 95 | 1011.4 |
| 20260904112848 | 80 | 58 | 0.0 | 0.0 | 0.00 | 0.06 | 0.00 | 95 | 1011.3 |
| 20260904112749 | 80 | 58 | 0.0 | 0.0 | 0.00 | 0.06 | 0.00 | 95 | 1011.4 |
| 20260904112648 | 80 | 58 | 0.0 | 0.0 | 0.00 | 0.07 | 0.00 | 95 | 1011.3 |
| 20260904112547 | 80 | 58 | 0.0 | 0.0 | 0.00 | 0.07 | 0.00 | 95 | 1011.3 |
| 20260904112448 | 80 | 58 | 0.0 | 0.0 | 0.00 | 0.08 | 0.00 | 95 | 1011.3 |
| 20260904112333 | 80 | 58 | 0.0 | 0.0 | 0.00 | 0.09 | 0.00 | 95 | 1011.3 |
| 20260904112233 | 80 | 58 | 0.0 | 0.0 | 0.00 | 0.09 | 0.00 | 95 | 1011.3 |
| 20260904112130 | 80 | 58 | 0.0 | 0.0 | 0.00 | 0.10 | 0.00 | 95 | 1011.3 |
| 20260904112030 | 80 | 58 | 0.0 | 0.0 | 0.00 | 0.10 | 0.00 | 95 | 1011.2 |
| 20260904111933 | 80 | 58 | 0.0 | 0.0 | 0.00 | 0.11 | 0.00 | 95 | 1011.2 |
| 20260904111832 | 80 | 58 | 0.0 | 0.0 | 0.00 | 0.11 | 0.00 | 95 | 1011.2 |
| 20260904111731 | 80 | 58 | 0.0 | 0.0 | 0.00 | 0.12 | 0.00 | 95 | 1011.3 |
| 20260904111630 | 80 | 58 | 0.0 | 0.0 | 0.00 | 0.12 | 0.00 | 95 | 1011.3 |
| 20260904111527 | 80 | 58 | 0.0 | 0.0 | 0.00 | 0.12 | 0.00 | 95 | 1011.3 |
| 20260904111426 | 80 | 58 | 0.0 | 0.0 | 0.00 | 0.12 | 0.00 | 95 | 1011.2 |
| 20260904111325 | 80 | 58 | 0.0 | 0.0 | 0.00 | 0.13 | 0.00 | 95 | 1011.3 |
| 20260904111223 | 80 | 58 | 0.0 | 0.9 | 0.00 | 0.13 | 0.00 | 95 | 1011.2 |
| 20260904111122 | 80 | 58 | 0.0 | 2.6 | 0.00 | 0.13 | 0.00 | 95 | 1011.2 |
| 20260904111017 | 80 | 58 | 0.0 | 2.6 | 0.00 | 0.13 | 0.00 | 95 | 1011.3 |
| 20260904110917 | 80 | 58 | 0.0 | 2.6 | 0.00 | 0.13 | 0.00 | 95 | 1011.2 |
| 20260904110816 | 80 | 58 | 0.0 | 2.6 | 0.00 | 0.14 | 0.00 | 95 | 1011.3 |
| 20260904110713 | 80 | 58 | 0.0 | 2.6 | 0.00 | 0.14 | 0.00 | 95 | 1011.3 |
| 20260904110611 | 80 | 58 | 0.0 | 2.6 | 0.00 | 0.14 | 0.00 | 95 | 1011.3 |
| 20260904110510 | 80 | 58 | 0.0 | 2.6 | 0.00 | 0.14 | 0.00 | 95 | 1011.3 |
| 20260904110409 | 80 | 58 | 0.0 | 2.6 | 0.00 | 0.14 | 0.00 | 95 | 1011.3 |
| 20260904110306 | 80 | 58 | 0.9 | 2.6 | 0.00 | 0.14 | 0.00 | 95 | 1011.3 |
| 20260904110206 | 80 | 58 | 1.7 | 4.3 | 0.00 | 0.14 | 0.00 | 95 | 1011.3 |
| 20260904110104 | 80 | 58 | 0.9 | 4.3 | 0.00 | 0.14 | 0.00 | 95 | 1011.3 |
| 20260904110004 | 80 | 58 | 0.9 | 4.3 | 0.00 | 0.14 | 0.00 | 95 | 1011.3 |
| 20260904105903 | 80 | 58 | 1.7 | 4.3 | 0.00 | 0.14 | 0.00 | 95 | 1011.3 |
| 20260904105802 | 80 | 58 | 1.7 | 4.3 | 0.00 | 0.14 | 0.00 | 95 | 1011.3 |
| 20260904105704 | 80 | 58 | 1.7 | 4.3 | 0.00 | 0.14 | 0.00 | 95 | 1011.4 |
| 20260904105603 | 80 | 58 | 1.7 | 4.3 | 0.00 | 0.14 | 0.00 | 95 | 1011.3 |
| 20260904105504 | 80 | 58 | 1.7 | 4.3 | 0.00 | 0.14 | 0.00 | 95 | 1011.3 |
| 20260904105401 | 80 | 58 | 2.6 | 4.3 | 0.00 | 0.14 | 0.00 | 95 | 1011.2 |
| 20260904105305 | 80 | 58 | 3.5 | 4.3 | 0.00 | 0.14 | 0.00 | 95 | 1011.3 |
| 20260904105202 | 80 | 56 | 3.5 | 4.3 | 0.00 | 0.14 | 0.00 | 95 | 1011.3 |
| 20260904105104 | 80 | 82 | 2.6 | 4.3 | 0.00 | 0.14 | 0.00 | 95 | 1011.3 |
| 20260904105003 | 80 | 82 | 2.6 | 4.3 | 0.00 | 0.14 | 0.00 | 95 | 1011.4 |
| 20260904104904 | 80 | 82 | 2.6 | 4.3 | 0.00 | 0.14 | 0.00 | 95 | 1011.3 |
| 20260904104803 | 80 | 82 | 2.6 | 4.3 | 0.00 | 0.14 | 0.00 | 95 | 1011.3 |
| 20260904104702 | 80 | 68 | 2.6 | 4.3 | 0.00 | 0.14 | 0.00 | 95 | 1011.2 |
| 20260904104603 | 80 | 66 | 2.6 | 4.3 | 0.00 | 0.14 | 0.00 | 95 | 1011.2 |
| 20260904104502 | 80 | 66 | 2.6 | 4.3 | 0.00 | 0.14 | 0.00 | 95 | 1011.3 |
| 20260904104402 | 80 | 66 | 3.5 | 4.3 | 0.00 | 0.14 | 0.00 | 95 | 1011.2 |
| 20260904104304 | 80 | 65 | 2.6 | 4.3 | 0.00 | 0.14 | 0.00 | 95 | 1011.3 |
| 20260904104203 | 80 | 65 | 2.6 | 3.5 | 0.00 | 0.14 | 0.00 | 95 | 1011.2 |
| 20260904104102 | 80 | 65 | 2.6 | 3.5 | 0.00 | 0.14 | 0.00 | 95 | 1011.2 |
| 20260904104003 | 80 | 63 | 2.6 | 3.5 | 0.00 | 0.14 | 0.00 | 95 | 1011.3 |
| 20260904103903 | 80 | 63 | 2.6 | 3.5 | 0.00 | 0.14 | 0.00 | 95 | 1011.3 |
| 20260904103802 | 80 | 63 | 2.6 | 3.5 | 0.00 | 0.14 | 0.00 | 95 | 1011.2 |
| 20260904103702 | 80 | 54 | 1.7 | 3.5 | 0.00 | 0.14 | 0.00 | 95 | 1011.3 |
| 20260904103602 | 80 | 52 | 1.7 | 2.6 | 0.00 | 0.14 | 0.00 | 95 | 1011.3 |
| 20260904103502 | 80 | 52 | 1.7 | 2.6 | 0.00 | 0.14 | 0.00 | 95 | 1011.3 |
| 20260904103403 | 80 | 52 | 1.7 | 2.6 | 0.00 | 0.14 | 0.00 | 95 | 1011.3 |
| 20260904103303 | 80 | 52 | 1.7 | 2.6 | 0.00 | 0.14 | 0.00 | 95 | 1011.3 |
| 20260904103202 | 80 | 52 | 1.7 | 2.6 | 0.00 | 0.14 | 0.00 | 95 | 1011.3 |
| 20260904103102 | 80 | 52 | 1.7 | 2.6 | 0.00 | 0.14 | 0.00 | 95 | 1011.2 |
| 20260904103002 | 80 | 52 | 1.7 | 2.6 | 0.00 | 0.14 | 0.00 | 95 | 1011.2 |
| 20260904102903 | 80 | 52 | 1.7 | 2.6 | 0.00 | 0.14 | 0.00 | 95 | 1011.2 |
| 20260904102802 | 80 | 52 | 1.7 | 2.6 | 0.00 | 0.14 | 0.00 | 95 | 1011.2 |
| 20260904102704 | 80 | 52 | 1.7 | 3.5 | 0.00 | 0.14 | 0.00 | 95 | 1011.1 |
| 20260904102603 | 80 | 52 | 1.7 | 3.5 | 0.00 | 0.14 | 0.00 | 95 | 1011.1 |
| 20260904102503 | 80 | 52 | 1.7 | 3.5 | 0.00 | 0.14 | 0.00 | 95 | 1011.1 |
| 20260904102404 | 80 | 52 | 1.7 | 3.5 | 0.00 | 0.14 | 0.00 | 95 | 1011.1 |
| 20260904102301 | 80 | 52 | 1.7 | 3.5 | 0.00 | 0.14 | 0.00 | 95 | 1011.1 |
| 20260904102204 | 80 | 52 | 1.7 | 3.5 | 0.00 | 0.14 | 0.00 | 95 | 1011.0 |
| 20260904102103 | 80 | 52 | 1.7 | 3.5 | 0.00 | 0.14 | 0.00 | 95 | 1011.0 |
| 20260904102003 | 80 | 52 | 1.7 | 3.5 | 0.00 | 0.14 | 0.00 | 95 | 1011.0 |
| 20260904101903 | 80 | 54 | 1.7 | 3.5 | 0.00 | 0.14 | 0.00 | 95 | 1011.0 |
| 20260904101802 | 80 | 54 | 2.6 | 3.5 | 0.00 | 0.14 | 0.00 | 95 | 1011.0 |
| 20260904101702 | 80 | 75 | 1.7 | 3.5 | 0.00 | 0.14 | 0.00 | 95 | 1011.0 |
| 20260904101603 | 80 | 76 | 1.7 | 3.5 | 0.00 | 0.14 | 0.00 | 95 | 1010.9 |
| 20260904101503 | 80 | 76 | 1.7 | 3.5 | 0.00 | 0.14 | 0.00 | 95 | 1010.9 |
| 20260904101403 | 80 | 78 | 1.7 | 3.5 | 0.00 | 0.14 | 0.00 | 95 | 1011.0 |
| 20260904101303 | 80 | 78 | 1.7 | 3.5 | 0.00 | 0.14 | 0.00 | 95 | 1010.9 |
| 20260904101203 | 80 | 78 | 1.7 | 3.5 | 0.00 | 0.14 | 0.00 | 95 | 1011.0 |
| 20260904101103 | 80 | 78 | 1.7 | 2.6 | 0.00 | 0.14 | 0.00 | 95 | 1011.0 |
| 20260904101002 | 80 | 78 | 1.7 | 2.6 | 0.00 | 0.14 | 0.00 | 95 | 1011.0 |
| 20260904100903 | 80 | 79 | 0.0 | 2.6 | 0.00 | 0.14 | 0.00 | 95 | 1010.9 |
| 20260904100803 | 80 | 100 | 0.0 | 0.0 | 0.00 | 0.14 | 0.00 | 95 | 1010.9 |
| 20260904100703 | 80 | 102 | 0.0 | 0.0 | 0.00 | 0.14 | 0.00 | 95 | 1010.9 |
| 20260904100603 | 80 | 102 | 0.0 | 0.0 | 0.00 | 0.14 | 0.00 | 95 | 1010.9 |
| 20260904100504 | 80 | 102 | 0.0 | 0.0 | 0.00 | 0.14 | 0.00 | 95 | 1010.9 |
| 20260904100402 | 80 | 102 | 0.0 | 0.0 | 0.00 | 0.14 | 0.00 | 95 | 1010.8 |
| 20260904100302 | 80 | 102 | 0.0 | 0.0 | 0.00 | 0.14 | 0.00 | 95 | 1010.8 |
| 20260904100203 | 80 | 102 | 0.0 | 0.0 | 0.00 | 0.14 | 0.00 | 95 | 1010.9 |
| 20260904100004 | 80 | 102 | 0.0 | 0.0 | 0.00 | 0.14 | 0.00 | 95 | 1010.9 |
| 20260904095904 | 80 | 102 | 0.0 | 0.0 | 0.00 | 0.14 | 0.00 | 95 | 1010.8 |
| 20260904095804 | 80 | 102 | 0.0 | 0.0 | 0.00 | 0.14 | 0.00 | 95 | 1010.8 |
| 20260904095702 | 80 | 102 | 0.0 | 0.0 | 0.00 | 0.14 | 0.00 | 95 | 1010.9 |
| 20260904095602 | 80 | 102 | 0.0 | 0.0 | 0.00 | 0.14 | 0.00 | 95 | 1010.8 |
| 20260904095503 | 80 | 102 | 0.0 | 0.0 | 0.00 | 0.14 | 0.00 | 95 | 1010.8 |
| 20260904095402 | 80 | 102 | 0.0 | 0.0 | 0.00 | 0.14 | 0.00 | 95 | 1010.9 |
| 20260904095306 | 80 | 102 | 0.0 | 0.0 | 0.00 | 0.14 | 0.00 | 95 | 1010.7 |
| 20260904095205 | 80 | 102 | 0.0 | 0.0 | 0.00 | 0.14 | 0.00 | 95 | 1010.8 |
| 20260904095102 | 80 | 102 | 0.0 | 0.0 | 0.00 | 0.14 | 0.00 | 95 | 1010.8 |
| 20260904095002 | 80 | 102 | 0.0 | 0.0 | 0.00 | 0.14 | 0.00 | 95 | 1010.8 |
| 20260904094902 | 80 | 102 | 0.0 | 0.0 | 0.00 | 0.14 | 0.00 | 95 | 1010.8 |
| 20260904094802 | 80 | 102 | 0.0 | 0.0 | 0.00 | 0.14 | 0.00 | 95 | 1010.8 |
| 20260904094702 | 80 | 102 | 0.0 | 0.0 | 0.00 | 0.14 | 0.00 | 95 | 1010.8 |
| 20260904094604 | 80 | 102 | 0.0 | 0.0 | 0.00 | 0.14 | 0.00 | 95 | 1010.8 |
| 20260904094503 | 80 | 102 | 0.0 | 0.0 | 0.00 | 0.14 | 0.00 | 95 | 1010.7 |
| 20260904094402 | 80 | 102 | 0.0 | 0.0 | 0.00 | 0.14 | 0.00 | 95 | 1010.8 |
| 20260904094302 | 80 | 102 | 0.0 | 0.0 | 0.00 | 0.14 | 0.00 | 95 | 1010.8 |
| 20260904094203 | 80 | 102 | 0.0 | 0.0 | 0.00 | 0.14 | 0.00 | 95 | 1010.7 |
| 20260904094103 | 80 | 102 | 0.0 | 0.0 | 0.00 | 0.14 | 0.00 | 95 | 1010.7 |
| 20260904094003 | 80 | 102 | 0.0 | 0.0 | 0.00 | 0.14 | 0.00 | 95 | 1010.7 |
| 20260904093903 | 80 | 102 | 0.0 | 0.0 | 0.00 | 0.14 | 0.00 | 95 | 1010.7 |
| 20260904093803 | 80 | 102 | 0.0 | 0.0 | 0.00 | 0.14 | 0.00 | 95 | 1010.7 |
| 20260904093703 | 80 | 102 | 0.0 | 0.0 | 0.00 | 0.14 | 0.00 | 94 | 1010.7 |
| 20260904093602 | 80 | 102 | 0.0 | 0.0 | 0.00 | 0.14 | 0.00 | 95 | 1010.7 |
| 20260904093502 | 80 | 102 | 0.0 | 0.0 | 0.00 | 0.14 | 0.00 | 94 | 1010.8 |
| 20260904093402 | 80 | 102 | 0.0 | 0.0 | 0.00 | 0.14 | 0.00 | 94 | 1010.7 |
| 20260904093303 | 80 | 102 | 0.0 | 0.0 | 0.00 | 0.14 | 0.00 | 94 | 1010.7 |
| 20260904093202 | 80 | 102 | 0.0 | 0.0 | 0.00 | 0.14 | 0.00 | 95 | 1010.7 |
| 20260904093102 | 80 | 102 | 0.0 | 0.0 | 0.00 | 0.14 | 0.00 | 95 | 1010.7 |
| 20260904093002 | 80 | 102 | 0.0 | 0.0 | 0.00 | 0.14 | 0.00 | 95 | 1010.7 |
| 20260904092902 | 80 | 102 | 0.0 | 0.0 | 0.00 | 0.14 | 0.00 | 95 | 1010.7 |
| 20260904092803 | 80 | 102 | 0.0 | 0.0 | 0.00 | 0.14 | 0.00 | 94 | 1010.7 |
| 20260904092703 | 80 | 102 | 0.0 | 0.0 | 0.00 | 0.14 | 0.00 | 94 | 1010.7 |
| 20260904092602 | 80 | 102 | 0.0 | 0.0 | 0.00 | 0.14 | 0.00 | 94 | 1010.7 |
| 20260904092502 | 80 | 102 | 0.0 | 0.0 | 0.00 | 0.14 | 0.00 | 94 | 1010.7 |
| 20260904092402 | 80 | 102 | 0.0 | 0.0 | 0.00 | 0.14 | 0.00 | 94 | 1010.8 |
| 20260904092306 | 80 | 102 | 0.0 | 0.0 | 0.00 | 0.14 | 0.00 | 94 | 1010.7 |
| 20260904092202 | 80 | 102 | 0.0 | 0.0 | 0.00 | 0.14 | 0.00 | 94 | 1010.7 |
| 20260904092103 | 80 | 102 | 0.0 | 0.0 | 0.00 | 0.14 | 0.00 | 94 | 1010.7 |
| 20260904092003 | 80 | 102 | 0.0 | 0.0 | 0.00 | 0.14 | 0.00 | 94 | 1010.7 |
| 20260904091903 | 80 | 102 | 0.0 | 0.0 | 0.00 | 0.14 | 0.00 | 94 | 1010.6 |
| 20260904091748 | 80 | 102 | 0.0 | 0.0 | 0.00 | 0.14 | 0.00 | 94 | 1010.6 |
| 20260904091647 | 80 | 102 | 0.0 | 0.0 | 0.00 | 0.14 | 0.00 | 94 | 1010.6 |
| 20260904091546 | 80 | 102 | 0.0 | 0.0 | 0.00 | 0.14 | 0.00 | 94 | 1010.6 |
| 20260904091444 | 80 | 102 | 0.0 | 0.0 | 0.00 | 0.14 | 0.00 | 94 | 1010.7 |
| 20260904091344 | 80 | 102 | 0.0 | 0.0 | 0.00 | 0.14 | 0.00 | 94 | 1010.6 |
| 20260904091244 | 80 | 102 | 0.0 | 0.0 | 0.00 | 0.14 | 0.00 | 94 | 1010.6 |
| 20260904091146 | 80 | 102 | 0.0 | 0.0 | 0.00 | 0.14 | 0.00 | 94 | 1010.7 |
| 20260904091046 | 80 | 93 | 0.0 | 0.0 | 0.00 | 0.14 | 0.00 | 94 | 1010.6 |
| 20260904090946 | 80 | 96 | 0.0 | 0.0 | 0.00 | 0.14 | 0.00 | 94 | 1010.6 |
| 20260904090845 | 80 | 96 | 0.0 | 0.0 | 0.00 | 0.14 | 0.00 | 94 | 1010.6 |
| 20260904090744 | 80 | 96 | 0.0 | 0.0 | 0.00 | 0.14 | 0.00 | 94 | 1010.7 |
| 20260904090644 | 80 | 96 | 0.0 | 0.0 | 0.00 | 0.14 | 0.00 | 94 | 1010.7 |
| 20260904090545 | 80 | 96 | 0.0 | 0.0 | 0.00 | 0.14 | 0.00 | 94 | 1010.8 |
| 20260904090444 | 80 | 96 | 0.0 | 0.0 | 0.00 | 0.14 | 0.00 | 94 | 1010.8 |
| 20260904090344 | 80 | 96 | 0.0 | 0.0 | 0.00 | 0.14 | 0.00 | 94 | 1010.8 |
| 20260904090244 | 80 | 97 | 0.0 | 0.0 | 0.00 | 0.14 | 0.00 | 94 | 1010.8 |
| 20260904090147 | 80 | 97 | 0.0 | 0.0 | 0.00 | 0.14 | 0.00 | 94 | 1010.8 |
| 20260904090045 | 80 | 99 | 0.0 | 0.0 | 0.00 | 0.14 | 0.00 | 94 | 1010.8 |
| 20260904085946 | 80 | 99 | 0.0 | 0.0 | 0.00 | 0.14 | 0.00 | 94 | 1010.8 |
| 20260904085846 | 81 | 100 | 0.0 | 0.0 | 0.00 | 0.14 | 0.00 | 94 | 1010.9 |
| 20260904085745 | 80 | 100 | 0.0 | 0.0 | 0.00 | 0.14 | 0.00 | 94 | 1010.8 |
| 20260904085642 | 81 | 100 | 0.0 | 0.0 | 0.00 | 0.14 | 0.00 | 94 | 1010.9 |
| 20260904085542 | 81 | 100 | 0.0 | 0.0 | 0.00 | 0.14 | 0.00 | 94 | 1010.9 |
| 20260904085439 | 81 | 100 | 0.0 | 0.0 | 0.00 | 0.14 | 0.00 | 94 | 1010.8 |
| 20260904085338 | 81 | 100 | 0.0 | 0.0 | 0.00 | 0.14 | 0.00 | 94 | 1010.8 |
| 20260904085237 | 81 | 100 | 0.0 | 0.0 | 0.00 | 0.14 | 0.00 | 94 | 1010.9 |
| 20260904085135 | 81 | 100 | 0.0 | 0.0 | 0.00 | 0.14 | 0.00 | 94 | 1010.9 |
| 20260904085034 | 81 | 100 | 0.0 | 0.0 | 0.00 | 0.14 | 0.00 | 94 | 1010.8 |
| 20260904084931 | 81 | 100 | 0.0 | 0.0 | 0.00 | 0.14 | 0.00 | 93 | 1010.9 |
| 20260904084831 | 81 | 102 | 0.0 | 0.0 | 0.00 | 0.14 | 0.00 | 94 | 1010.8 |
| 20260904084731 | 81 | 102 | 0.0 | 0.0 | 0.00 | 0.14 | 0.00 | 93 | 1010.9 |
| 20260904084632 | 81 | 102 | 0.0 | 0.0 | 0.00 | 0.14 | 0.00 | 93 | 1010.8 |
| 20260904084531 | 81 | 102 | 0.0 | 0.0 | 0.00 | 0.14 | 0.00 | 93 | 1010.8 |
| 20260904084432 | 81 | 102 | 0.0 | 0.0 | 0.00 | 0.14 | 0.00 | 93 | 1010.8 |
| 20260904084331 | 81 | 102 | 0.0 | 0.0 | 0.00 | 0.14 | 0.00 | 93 | 1010.9 |
| 20260904084232 | 81 | 102 | 0.0 | 0.0 | 0.00 | 0.14 | 0.00 | 93 | 1010.8 |
| 20260904084131 | 81 | 102 | 0.0 | 0.0 | 0.00 | 0.14 | 0.00 | 93 | 1010.8 |
| 20260904084031 | 81 | 102 | 0.0 | 0.0 | 0.00 | 0.14 | 0.00 | 93 | 1010.8 |
| 20260904083932 | 81 | 102 | 0.0 | 0.0 | 0.00 | 0.14 | 0.00 | 93 | 1010.9 |
| 20260904083832 | 81 | 102 | 0.0 | 0.0 | 0.00 | 0.14 | 0.00 | 93 | 1010.9 |
| 20260904083731 | 81 | 102 | 0.0 | 0.0 | 0.00 | 0.14 | 0.00 | 93 | 1010.9 |
| 20260904083631 | 81 | 102 | 0.0 | 0.0 | 0.00 | 0.14 | 0.00 | 93 | 1010.9 |
| 20260904083532 | 81 | 102 | 0.0 | 0.0 | 0.00 | 0.14 | 0.00 | 93 | 1010.9 |
| 20260904083432 | 81 | 102 | 0.0 | 0.0 | 0.00 | 0.14 | 0.00 | 93 | 1010.9 |
| 20260904083331 | 81 | 102 | 0.0 | 0.0 | 0.00 | 0.14 | 0.00 | 93 | 1010.9 |
| 20260904083231 | 81 | 102 | 0.0 | 0.0 | 0.00 | 0.14 | 0.00 | 93 | 1010.9 |
| 20260904083132 | 81 | 102 | 0.0 | 0.0 | 0.00 | 0.14 | 0.00 | 93 | 1011.0 |
| 20260904083031 | 81 | 102 | 0.0 | 0.0 | 0.00 | 0.14 | 0.00 | 93 | 1010.8 |
| 20260904082932 | 81 | 102 | 0.0 | 0.0 | 0.00 | 0.14 | 0.00 | 93 | 1010.9 |
| 20260904082832 | 81 | 102 | 0.0 | 0.0 | 0.00 | 0.14 | 0.00 | 93 | 1010.9 |
| 20260904082731 | 81 | 102 | 0.0 | 0.0 | 0.00 | 0.14 | 0.00 | 93 | 1011.0 |
| 20260904082630 | 81 | 102 | 0.0 | 0.0 | 0.00 | 0.14 | 0.00 | 93 | 1010.9 |
| 20260904082533 | 81 | 102 | 0.0 | 0.0 | 0.00 | 0.14 | 0.00 | 93 | 1011.0 |
| 20260904082431 | 81 | 102 | 0.0 | 0.0 | 0.00 | 0.14 | 0.00 | 93 | 1011.0 |
| 20260904082332 | 81 | 102 | 0.0 | 0.0 | 0.00 | 0.14 | 0.00 | 93 | 1011.0 |
| 20260904082233 | 81 | 102 | 0.0 | 0.0 | 0.00 | 0.14 | 0.00 | 93 | 1011.1 |
| 20260904082111 | 81 | 102 | 0.0 | 0.0 | 0.00 | 0.14 | 0.00 | 93 | 1011.0 |
| 20260904082012 | 81 | 102 | 0.0 | 0.0 | 0.00 | 0.14 | 0.00 | 93 | 1011.0 |
| 20260904081910 | 81 | 102 | 0.0 | 0.0 | 0.00 | 0.14 | 0.00 | 93 | 1011.0 |
| 20260904081807 | 81 | 102 | 0.0 | 0.0 | 0.00 | 0.14 | 0.00 | 93 | 1011.0 |
| 20260904081706 | 81 | 102 | 0.0 | 0.0 | 0.00 | 0.14 | 0.00 | 93 | 1011.0 |
| 20260904081605 | 81 | 102 | 0.0 | 0.0 | 0.00 | 0.14 | 0.00 | 93 | 1011.0 |
| 20260904081503 | 81 | 102 | 0.0 | 0.0 | 0.00 | 0.14 | 0.00 | 93 | 1011.0 |
| 20260904081403 | 81 | 102 | 0.0 | 0.0 | 0.00 | 0.14 | 0.00 | 93 | 1011.0 |
| 20260904081304 | 81 | 102 | 0.0 | 0.0 | 0.00 | 0.14 | 0.00 | 93 | 1011.0 |
| 20260904081202 | 81 | 102 | 0.0 | 0.0 | 0.00 | 0.14 | 0.00 | 93 | 1011.0 |
| 20260904081102 | 81 | 102 | 0.0 | 0.0 | 0.00 | 0.14 | 0.00 | 93 | 1011.0 |
| 20260904081002 | 81 | 102 | 0.0 | 0.0 | 0.00 | 0.14 | 0.00 | 92 | 1011.0 |
| 20260904080904 | 81 | 102 | 0.0 | 0.0 | 0.00 | 0.14 | 0.00 | 92 | 1011.0 |
| 20260904080802 | 81 | 102 | 0.0 | 0.0 | 0.00 | 0.14 | 0.00 | 92 | 1010.9 |
| 20260904080702 | 81 | 102 | 0.0 | 0.0 | 0.00 | 0.14 | 0.00 | 92 | 1011.0 |
| 20260904080603 | 81 | 102 | 0.0 | 0.0 | 0.00 | 0.14 | 0.00 | 92 | 1011.0 |
| 20260904080503 | 81 | 102 | 0.0 | 0.0 | 0.00 | 0.14 | 0.00 | 92 | 1011.0 |
| 20260904080403 | 82 | 102 | 0.0 | 0.0 | 0.00 | 0.14 | 0.00 | 92 | 1011.0 |
| 20260904080302 | 82 | 102 | 0.0 | 0.0 | 0.00 | 0.14 | 0.00 | 92 | 1011.0 |
| 20260904080204 | 82 | 102 | 0.0 | 0.0 | 0.00 | 0.14 | 0.00 | 92 | 1011.0 |
| 20260904080002 | 82 | 102 | 0.0 | 0.0 | 0.00 | 0.14 | 0.00 | 92 | 1011.0 |
| 20260904075904 | 82 | 102 | 0.0 | 0.0 | 0.00 | 0.14 | 0.00 | 92 | 1011.0 |
| 20260904075802 | 82 | 102 | 0.0 | 0.0 | 0.00 | 0.14 | 0.00 | 91 | 1010.9 |
| 20260904075703 | 82 | 102 | 0.0 | 0.0 | 0.00 | 0.14 | 0.00 | 91 | 1010.9 |
| 20260904075603 | 82 | 102 | 0.0 | 0.0 | 0.00 | 0.14 | 0.00 | 91 | 1011.0 |
| 20260904075503 | 82 | 102 | 0.0 | 0.0 | 0.00 | 0.14 | 0.00 | 91 | 1010.9 |
| 20260904075403 | 82 | 102 | 0.0 | 0.0 | 0.00 | 0.14 | 0.00 | 91 | 1010.9 |
| 20260904075306 | 82 | 102 | 0.0 | 0.0 | 0.00 | 0.14 | 0.00 | 91 | 1010.9 |
| 20260904075204 | 82 | 123 | 0.0 | 0.0 | 0.00 | 0.14 | 0.00 | 91 | 1010.9 |
| 20260904075102 | 82 | 123 | 0.0 | 0.0 | 0.00 | 0.14 | 0.00 | 91 | 1010.9 |
| 20260904075003 | 82 | 188 | 0.0 | 0.0 | 0.00 | 0.14 | 0.00 | 91 | 1010.9 |
| 20260904074904 | 82 | 197 | 0.0 | 0.0 | 0.00 | 0.14 | 0.00 | 91 | 1010.9 |
| 20260904074802 | 82 | 199 | 0.0 | 1.7 | 0.00 | 0.14 | 0.00 | 91 | 1010.9 |
| 20260904074702 | 82 | 199 | 0.0 | 2.6 | 0.00 | 0.14 | 0.00 | 91 | 1010.9 |
| 20260904074602 | 82 | 199 | 0.0 | 2.6 | 0.00 | 0.14 | 0.00 | 91 | 1011.0 |
| 20260904074503 | 82 | 199 | 0.0 | 2.6 | 0.00 | 0.14 | 0.00 | 91 | 1010.9 |
| 20260904074402 | 82 | 199 | 0.0 | 2.6 | 0.00 | 0.14 | 0.00 | 91 | 1010.9 |
| 20260904074304 | 82 | 199 | 0.0 | 2.6 | 0.00 | 0.14 | 0.00 | 91 | 1010.9 |
| 20260904074203 | 82 | 199 | 0.0 | 2.6 | 0.00 | 0.14 | 0.00 | 91 | 1010.9 |
| 20260904074102 | 82 | 199 | 0.0 | 2.6 | 0.00 | 0.14 | 0.00 | 91 | 1010.9 |
| 20260904074004 | 82 | 199 | 0.9 | 2.6 | 0.00 | 0.14 | 0.00 | 91 | 1010.9 |
| 20260904073904 | 82 | 199 | 0.9 | 2.6 | 0.00 | 0.14 | 0.00 | 91 | 1010.9 |
| 20260904073804 | 82 | 199 | 0.9 | 2.6 | 0.00 | 0.14 | 0.00 | 91 | 1010.9 |
| 20260904073702 | 82 | 199 | 0.0 | 2.6 | 0.00 | 0.14 | 0.00 | 91 | 1010.9 |
| 20260904073603 | 82 | 199 | 0.0 | 2.6 | 0.00 | 0.14 | 0.00 | 91 | 1010.9 |
| 20260904073503 | 82 | 199 | 0.0 | 2.6 | 0.00 | 0.14 | 0.00 | 91 | 1010.9 |
| 20260904073402 | 82 | 199 | 0.0 | 2.6 | 0.00 | 0.14 | 0.00 | 91 | 1010.9 |
| 20260904073302 | 82 | 199 | 0.0 | 2.6 | 0.00 | 0.14 | 0.00 | 91 | 1010.9 |
| 20260904073203 | 82 | 199 | 0.9 | 2.6 | 0.00 | 0.14 | 0.00 | 91 | 1011.0 |
| 20260904073103 | 82 | 199 | 0.9 | 2.6 | 0.00 | 0.14 | 0.00 | 91 | 1010.9 |
| 20260904073003 | 82 | 199 | 0.9 | 2.6 | 0.00 | 0.14 | 0.00 | 91 | 1010.9 |
| 20260904072902 | 82 | 171 | 0.0 | 2.6 | 0.00 | 0.14 | 0.00 | 91 | 1011.0 |
| 20260904072804 | 82 | 171 | 0.0 | 2.6 | 0.00 | 0.14 | 0.00 | 91 | 1011.0 |
| 20260904072702 | 82 | 171 | 0.0 | 2.6 | 0.00 | 0.14 | 0.00 | 91 | 1010.9 |
| 20260904072603 | 82 | 171 | 0.0 | 2.6 | 0.00 | 0.14 | 0.00 | 91 | 1010.9 |
| 20260904072506 | 82 | 171 | 0.9 | 2.6 | 0.00 | 0.14 | 0.00 | 91 | 1011.0 |
| 20260904072403 | 82 | 171 | 0.9 | 2.6 | 0.00 | 0.14 | 0.00 | 91 | 1010.9 |
| 20260904072306 | 82 | 171 | 0.9 | 2.6 | 0.00 | 0.14 | 0.00 | 91 | 1011.0 |
| 20260904072202 | 82 | 168 | 0.0 | 2.6 | 0.00 | 0.14 | 0.00 | 91 | 1010.9 |
| 20260904072103 | 82 | 168 | 0.9 | 2.6 | 0.00 | 0.14 | 0.00 | 91 | 1010.9 |
| 20260904072002 | 82 | 168 | 0.9 | 2.6 | 0.00 | 0.14 | 0.00 | 91 | 1011.0 |
| 20260904071902 | 82 | 168 | 0.9 | 2.6 | 0.00 | 0.14 | 0.00 | 91 | 1011.0 |
| 20260904071801 | 82 | 168 | 0.9 | 1.7 | 0.00 | 0.14 | 0.00 | 91 | 1011.0 |
| 20260904071703 | 82 | 175 | 0.0 | 2.6 | 0.00 | 0.14 | 0.00 | 91 | 1011.0 |
| 20260904071601 | 82 | 175 | 0.0 | 2.6 | 0.00 | 0.14 | 0.00 | 91 | 1011.1 |
| 20260904071503 | 82 | 175 | 0.9 | 3.5 | 0.00 | 0.14 | 0.00 | 91 | 1011.0 |
| 20260904071402 | 82 | 176 | 0.9 | 3.5 | 0.00 | 0.14 | 0.00 | 91 | 1011.0 |
| 20260904071303 | 82 | 176 | 0.9 | 3.5 | 0.00 | 0.14 | 0.00 | 91 | 1011.1 |
| 20260904071202 | 82 | 176 | 0.9 | 3.5 | 0.00 | 0.14 | 0.00 | 91 | 1011.1 |
| 20260904071102 | 82 | 176 | 0.0 | 3.5 | 0.00 | 0.14 | 0.00 | 91 | 1011.0 |
| 20260904071003 | 82 | 176 | 0.0 | 3.5 | 0.00 | 0.14 | 0.00 | 91 | 1011.1 |
| 20260904070902 | 82 | 176 | 0.9 | 3.5 | 0.00 | 0.14 | 0.00 | 91 | 1011.1 |
| 20260904070803 | 82 | 176 | 1.7 | 3.5 | 0.00 | 0.14 | 0.00 | 90 | 1011.1 |
| 20260904070702 | 82 | 180 | 1.7 | 3.5 | 0.00 | 0.14 | 0.00 | 91 | 1011.0 |
| 20260904070603 | 82 | 183 | 1.7 | 3.5 | 0.00 | 0.14 | 0.00 | 91 | 1011.1 |
| 20260904070502 | 82 | 172 | 1.7 | 2.6 | 0.00 | 0.14 | 0.00 | 91 | 1011.0 |
| 20260904070403 | 82 | 168 | 0.9 | 2.6 | 0.00 | 0.14 | 0.00 | 91 | 1011.1 |
| 20260904070303 | 82 | 171 | 0.9 | 2.6 | 0.00 | 0.14 | 0.00 | 90 | 1011.1 |
| 20260904070204 | 82 | 172 | 1.7 | 2.6 | 0.00 | 0.14 | 0.00 | 90 | 1011.0 |
| 20260904070103 | 82 | 178 | 0.9 | 2.6 | 0.00 | 0.14 | 0.00 | 90 | 1011.1 |
| 20260904070003 | 82 | 175 | 0.9 | 2.6 | 0.00 | 0.14 | 0.00 | 90 | 1011.1 |
| 20260904065902 | 82 | 210 | 0.9 | 2.6 | 0.00 | 0.14 | 0.00 | 90 | 1011.0 |
| 20260904065804 | 82 | 212 | 0.9 | 3.5 | 0.00 | 0.14 | 0.00 | 90 | 1011.0 |
| 20260904065703 | 82 | 213 | 0.9 | 4.3 | 0.00 | 0.14 | 0.00 | 90 | 1011.1 |
| 20260904065602 | 82 | 214 | 0.9 | 4.3 | 0.00 | 0.14 | 0.00 | 90 | 1011.1 |
| 20260904065502 | 82 | 214 | 0.9 | 4.3 | 0.00 | 0.14 | 0.00 | 90 | 1011.1 |
| 20260904065403 | 82 | 214 | 0.9 | 4.3 | 0.00 | 0.14 | 0.00 | 90 | 1011.0 |
| 20260904065306 | 82 | 193 | 0.9 | 4.3 | 0.00 | 0.14 | 0.00 | 90 | 1011.0 |
| 20260904065202 | 82 | 193 | 0.0 | 4.3 | 0.00 | 0.14 | 0.00 | 90 | 1011.0 |
| 20260904065103 | 82 | 193 | 0.9 | 4.3 | 0.00 | 0.14 | 0.00 | 90 | 1011.0 |
| 20260904065004 | 82 | 193 | 1.7 | 4.3 | 0.00 | 0.14 | 0.00 | 90 | 1011.0 |
| 20260904064901 | 82 | 190 | 2.6 | 4.3 | 0.00 | 0.14 | 0.00 | 90 | 1011.0 |
| 20260904064802 | 82 | 210 | 1.7 | 4.3 | 0.00 | 0.14 | 0.00 | 90 | 1011.0 |
| 20260904064704 | 82 | 196 | 0.9 | 3.5 | 0.00 | 0.14 | 0.00 | 90 | 1011.0 |
| 20260904064602 | 82 | 197 | 0.9 | 3.5 | 0.00 | 0.14 | 0.00 | 90 | 1010.9 |
| 20260904064503 | 82 | 197 | 1.7 | 3.5 | 0.00 | 0.14 | 0.00 | 90 | 1011.0 |
| 20260904064403 | 82 | 216 | 1.7 | 3.5 | 0.00 | 0.14 | 0.00 | 90 | 1011.0 |
| 20260904064303 | 82 | 217 | 2.6 | 3.5 | 0.00 | 0.14 | 0.00 | 90 | 1011.0 |
| 20260904064202 | 82 | 189 | 2.6 | 5.2 | 0.00 | 0.14 | 0.00 | 90 | 1011.0 |
| 20260904064102 | 82 | 196 | 2.6 | 5.2 | 0.00 | 0.14 | 0.00 | 90 | 1011.0 |
| 20260904064004 | 82 | 217 | 1.7 | 5.2 | 0.00 | 0.14 | 0.00 | 90 | 1011.0 |
| 20260904063901 | 82 | 193 | 0.9 | 5.2 | 0.00 | 0.14 | 0.00 | 90 | 1011.0 |
| 20260904063803 | 82 | 189 | 1.7 | 5.2 | 0.00 | 0.14 | 0.00 | 90 | 1011.0 |
| 20260904063704 | 82 | 189 | 1.7 | 5.2 | 0.00 | 0.14 | 0.00 | 90 | 1011.1 |
| 20260904063602 | 82 | 189 | 1.7 | 5.2 | 0.00 | 0.14 | 0.00 | 90 | 1011.1 |
| 20260904063504 | 82 | 189 | 1.7 | 5.2 | 0.00 | 0.14 | 0.00 | 90 | 1011.0 |
| 20260904063404 | 82 | 199 | 2.6 | 5.2 | 0.00 | 0.14 | 0.00 | 90 | 1011.0 |
| 20260904063302 | 82 | 213 | 2.6 | 5.2 | 0.00 | 0.14 | 0.00 | 90 | 1011.0 |
| 20260904063201 | 82 | 190 | 2.6 | 5.2 | 0.00 | 0.14 | 0.00 | 90 | 1011.0 |
| 20260904063100 | 82 | 221 | 2.6 | 5.2 | 0.00 | 0.14 | 0.00 | 90 | 1010.9 |
| 20260904062959 | 82 | 220 | 1.7 | 3.5 | 0.00 | 0.14 | 0.00 | 90 | 1011.0 |
| 20260904062856 | 82 | 214 | 1.7 | 4.3 | 0.00 | 0.14 | 0.00 | 90 | 1010.9 |
| 20260904062754 | 82 | 216 | 1.7 | 4.3 | 0.00 | 0.14 | 0.00 | 90 | 1011.0 |
| 20260904062653 | 82 | 216 | 2.6 | 4.3 | 0.00 | 0.14 | 0.00 | 90 | 1011.0 |
| 20260904062551 | 82 | 196 | 2.6 | 4.3 | 0.00 | 0.14 | 0.00 | 90 | 1011.0 |
| 20260904062449 | 82 | 200 | 1.7 | 4.3 | 0.00 | 0.14 | 0.00 | 90 | 1011.0 |
| 20260904062347 | 82 | 204 | 0.9 | 4.3 | 0.00 | 0.14 | 0.00 | 90 | 1011.0 |
| 20260904062247 | 82 | 206 | 1.7 | 4.3 | 0.00 | 0.14 | 0.00 | 90 | 1011.0 |
| 20260904062142 | 82 | 207 | 2.6 | 4.3 | 0.00 | 0.14 | 0.00 | 90 | 1011.0 |
| 20260904062040 | 82 | 193 | 2.6 | 4.3 | 0.00 | 0.14 | 0.00 | 90 | 1011.0 |
| 20260904061940 | 82 | 196 | 2.6 | 4.3 | 0.00 | 0.14 | 0.00 | 90 | 1011.0 |
| 20260904061842 | 82 | 180 | 1.7 | 4.3 | 0.00 | 0.14 | 0.00 | 90 | 1011.0 |
| 20260904061740 | 82 | 186 | 1.7 | 4.3 | 0.00 | 0.14 | 0.00 | 90 | 1011.0 |
| 20260904061639 | 82 | 168 | 2.6 | 4.3 | 0.00 | 0.14 | 0.00 | 90 | 1011.0 |
| 20260904061542 | 82 | 197 | 2.6 | 4.3 | 0.00 | 0.14 | 0.00 | 90 | 1011.0 |
| 20260904061441 | 82 | 192 | 1.7 | 4.3 | 0.00 | 0.14 | 0.00 | 90 | 1011.1 |
| 20260904061341 | 82 | 199 | 1.7 | 2.6 | 0.00 | 0.14 | 0.00 | 90 | 1011.0 |
| 20260904061240 | 82 | 200 | 1.7 | 2.6 | 0.00 | 0.14 | 0.00 | 90 | 1011.0 |
| 20260904061141 | 82 | 202 | 0.9 | 2.6 | 0.00 | 0.14 | 0.00 | 90 | 1011.0 |
| 20260904061040 | 82 | 204 | 1.7 | 2.6 | 0.00 | 0.14 | 0.00 | 90 | 1011.1 |
| 20260904060940 | 82 | 197 | 1.7 | 2.6 | 0.00 | 0.14 | 0.00 | 90 | 1011.1 |
| 20260904060842 | 82 | 180 | 1.7 | 3.5 | 0.00 | 0.14 | 0.00 | 90 | 1011.1 |
| 20260904060740 | 82 | 140 | 0.0 | 3.5 | 0.00 | 0.14 | 0.00 | 90 | 1011.1 |
| 20260904060640 | 82 | 130 | 0.9 | 3.5 | 0.00 | 0.14 | 0.00 | 90 | 1011.2 |
| 20260904060540 | 82 | 130 | 0.9 | 3.5 | 0.00 | 0.14 | 0.00 | 90 | 1011.2 |
| 20260904060442 | 82 | 130 | 0.9 | 3.5 | 0.00 | 0.14 | 0.00 | 90 | 1011.2 |
| 20260904060341 | 82 | 128 | 0.9 | 3.5 | 0.00 | 0.14 | 0.00 | 90 | 1011.2 |
| 20260904060241 | 82 | 125 | 0.9 | 3.5 | 0.00 | 0.14 | 0.00 | 90 | 1011.2 |
| 20260904060141 | 82 | 124 | 0.9 | 3.5 | 0.00 | 0.14 | 0.00 | 90 | 1011.3 |
| 20260904060041 | 82 | 123 | 1.7 | 3.5 | 0.00 | 0.14 | 0.00 | 90 | 1011.3 |
| 20260904055940 | 82 | 118 | 1.7 | 3.5 | 0.00 | 0.14 | 0.00 | 90 | 1011.3 |
| 20260904055840 | 82 | 159 | 2.6 | 3.5 | 0.00 | 0.14 | 0.00 | 90 | 1011.2 |
| 20260904055741 | 82 | 141 | 2.6 | 3.5 | 0.00 | 0.14 | 0.00 | 90 | 1011.3 |
| 20260904055640 | 82 | 141 | 0.9 | 3.5 | 0.00 | 0.14 | 0.00 | 90 | 1011.3 |
| 20260904055540 | 82 | 168 | 0.9 | 3.5 | 0.00 | 0.14 | 0.00 | 90 | 1011.3 |
| 20260904055441 | 82 | 168 | 1.7 | 3.5 | 0.00 | 0.14 | 0.00 | 90 | 1011.3 |
| 20260904055340 | 82 | 125 | 1.7 | 3.5 | 0.00 | 0.14 | 0.00 | 90 | 1011.3 |
| 20260904055241 | 82 | 123 | 1.7 | 3.5 | 0.00 | 0.14 | 0.00 | 90 | 1011.1 |
| 20260904055141 | 82 | 133 | 0.9 | 4.3 | 0.00 | 0.14 | 0.00 | 90 | 1011.2 |
| 20260904055041 | 82 | 130 | 0.9 | 4.3 | 0.00 | 0.14 | 0.00 | 90 | 1011.2 |
| 20260904054940 | 82 | 130 | 0.9 | 4.3 | 0.00 | 0.14 | 0.00 | 90 | 1011.2 |
| 20260904054840 | 82 | 131 | 0.9 | 4.3 | 0.00 | 0.14 | 0.00 | 90 | 1011.2 |
| 20260904054741 | 82 | 130 | 1.7 | 4.3 | 0.00 | 0.14 | 0.00 | 90 | 1011.3 |
| 20260904054640 | 82 | 125 | 1.7 | 4.3 | 0.00 | 0.14 | 0.00 | 90 | 1011.2 |
| 20260904054540 | 82 | 161 | 1.7 | 4.3 | 0.00 | 0.14 | 0.00 | 90 | 1011.3 |
| 20260904054441 | 82 | 125 | 1.7 | 4.3 | 0.00 | 0.14 | 0.00 | 90 | 1011.3 |
| 20260904054340 | 82 | 135 | 2.6 | 4.3 | 0.00 | 0.14 | 0.00 | 90 | 1011.2 |
| 20260904054239 | 82 | 133 | 2.6 | 4.3 | 0.00 | 0.14 | 0.00 | 90 | 1011.2 |
| 20260904054139 | 82 | 152 | 1.7 | 4.3 | 0.00 | 0.14 | 0.00 | 90 | 1011.3 |
| 20260904054041 | 82 | 125 | 1.7 | 4.3 | 0.00 | 0.14 | 0.00 | 90 | 1011.2 |
| 20260904053941 | 82 | 134 | 2.6 | 4.3 | 0.00 | 0.14 | 0.00 | 90 | 1011.2 |
| 20260904053839 | 82 | 138 | 1.7 | 4.3 | 0.00 | 0.14 | 0.00 | 90 | 1011.2 |
| 20260904053741 | 82 | 145 | 1.7 | 3.5 | 0.00 | 0.14 | 0.00 | 90 | 1011.2 |
| 20260904053640 | 82 | 141 | 1.7 | 3.5 | 0.00 | 0.14 | 0.00 | 90 | 1011.2 |
| 20260904053540 | 82 | 154 | 1.7 | 3.5 | 0.00 | 0.14 | 0.00 | 90 | 1011.1 |
| 20260904053439 | 82 | 171 | 1.7 | 3.5 | 0.00 | 0.14 | 0.00 | 90 | 1011.2 |
| 20260904053341 | 82 | 157 | 1.7 | 3.5 | 0.00 | 0.14 | 0.00 | 90 | 1011.2 |
| 20260904053239 | 82 | 127 | 0.9 | 3.5 | 0.00 | 0.14 | 0.00 | 90 | 1011.1 |
| 20260904053139 | 82 | 171 | 0.9 | 3.5 | 0.00 | 0.14 | 0.00 | 90 | 1011.1 |
| 20260904053039 | 82 | 131 | 1.7 | 3.5 | 0.00 | 0.14 | 0.00 | 90 | 1011.1 |
| 20260904052940 | 82 | 133 | 1.7 | 4.3 | 0.00 | 0.14 | 0.00 | 90 | 1011.1 |
| 20260904052839 | 82 | 166 | 1.7 | 4.3 | 0.00 | 0.14 | 0.00 | 90 | 1011.0 |
| 20260904052739 | 82 | 128 | 1.7 | 4.3 | 0.00 | 0.14 | 0.00 | 90 | 1011.1 |
| 20260904052641 | 82 | 141 | 1.7 | 4.3 | 0.00 | 0.14 | 0.00 | 90 | 1011.1 |
| 20260904052540 | 82 | 183 | 1.7 | 4.3 | 0.00 | 0.14 | 0.00 | 90 | 1011.1 |
| 20260904052439 | 82 | 147 | 1.7 | 4.3 | 0.00 | 0.14 | 0.00 | 90 | 1011.1 |
| 20260904052340 | 82 | 141 | 0.9 | 4.3 | 0.00 | 0.14 | 0.00 | 90 | 1011.2 |
| 20260904052239 | 82 | 142 | 1.7 | 4.3 | 0.00 | 0.14 | 0.00 | 90 | 1011.1 |
| 20260904052139 | 82 | 142 | 1.7 | 4.3 | 0.00 | 0.14 | 0.00 | 90 | 1011.1 |
| 20260904052039 | 82 | 137 | 2.6 | 4.3 | 0.00 | 0.14 | 0.00 | 90 | 1011.1 |
| 20260904051940 | 82 | 140 | 1.7 | 4.3 | 0.00 | 0.14 | 0.00 | 90 | 1011.2 |
| 20260904051839 | 82 | 169 | 0.9 | 4.3 | 0.00 | 0.14 | 0.00 | 90 | 1011.1 |
| 20260904051739 | 82 | 135 | 0.9 | 4.3 | 0.00 | 0.14 | 0.00 | 90 | 1011.2 |
| 20260904051640 | 82 | 161 | 1.7 | 4.3 | 0.00 | 0.14 | 0.00 | 90 | 1011.1 |
| 20260904051540 | 82 | 142 | 1.7 | 4.3 | 0.00 | 0.14 | 0.00 | 90 | 1011.1 |
| 20260904051439 | 82 | 145 | 1.7 | 4.3 | 0.00 | 0.14 | 0.00 | 90 | 1011.1 |
| 20260904051339 | 82 | 116 | 0.9 | 4.3 | 0.00 | 0.14 | 0.00 | 90 | 1011.1 |
| 20260904051241 | 82 | 106 | 0.9 | 4.3 | 0.00 | 0.14 | 0.00 | 90 | 1011.1 |
| 20260904051140 | 82 | 148 | 2.6 | 4.3 | 0.00 | 0.14 | 0.00 | 91 | 1011.1 |
| 20260904051039 | 82 | 131 | 1.7 | 4.3 | 0.00 | 0.14 | 0.00 | 91 | 1011.1 |
| 20260904050940 | 82 | 152 | 0.9 | 4.3 | 0.00 | 0.14 | 0.00 | 91 | 1011.1 |
| 20260904050839 | 82 | 151 | 1.7 | 4.3 | 0.00 | 0.14 | 0.00 | 91 | 1011.1 |
| 20260904050739 | 82 | 151 | 1.7 | 4.3 | 0.00 | 0.14 | 0.00 | 91 | 1011.1 |
| 20260904050639 | 82 | 104 | 0.9 | 4.3 | 0.00 | 0.14 | 0.00 | 91 | 1011.1 |
| 20260904050540 | 82 | 145 | 1.7 | 4.3 | 0.00 | 0.14 | 0.00 | 91 | 1011.1 |
| 20260904050439 | 82 | 145 | 1.7 | 4.3 | 0.00 | 0.14 | 0.00 | 91 | 1011.1 |
| 20260904050339 | 82 | 131 | 1.7 | 4.3 | 0.00 | 0.14 | 0.00 | 91 | 1011.1 |
| 20260904050241 | 82 | 104 | 1.7 | 4.3 | 0.00 | 0.14 | 0.00 | 91 | 1011.1 |
| 20260904050138 | 82 | 107 | 1.7 | 4.3 | 0.00 | 0.14 | 0.00 | 91 | 1011.1 |
| 20260904050039 | 82 | 120 | 1.7 | 4.3 | 0.00 | 0.14 | 0.00 | 91 | 1011.0 |
| 20260904045940 | 82 | 140 | 2.6 | 5.2 | 0.00 | 0.14 | 0.14 | 91 | 1011.1 |
| 20260904045839 | 82 | 110 | 1.7 | 5.2 | 0.00 | 0.14 | 0.14 | 91 | 1011.1 |
| 20260904045738 | 82 | 117 | 0.9 | 5.2 | 0.00 | 0.14 | 0.14 | 91 | 1011.1 |
| 20260904045638 | 82 | 111 | 1.7 | 5.2 | 0.00 | 0.14 | 0.14 | 91 | 1011.0 |
| 20260904045540 | 82 | 110 | 0.9 | 5.2 | 0.00 | 0.14 | 0.14 | 91 | 1011.0 |
| 20260904045439 | 82 | 109 | 1.7 | 5.2 | 0.00 | 0.14 | 0.14 | 91 | 1011.0 |
| 20260904045340 | 82 | 145 | 1.7 | 5.2 | 0.00 | 0.14 | 0.14 | 91 | 1011.0 |
| 20260904045240 | 82 | 145 | 1.7 | 5.2 | 0.00 | 0.14 | 0.14 | 91 | 1011.0 |
| 20260904045139 | 82 | 135 | 1.7 | 5.2 | 0.00 | 0.14 | 0.14 | 91 | 1011.0 |
| 20260904045038 | 82 | 152 | 2.6 | 5.2 | 0.00 | 0.14 | 0.14 | 91 | 1011.0 |
| 20260904044939 | 82 | 152 | 2.6 | 5.2 | 0.00 | 0.14 | 0.14 | 91 | 1011.0 |
| 20260904044839 | 82 | 134 | 2.6 | 5.2 | 0.00 | 0.14 | 0.14 | 91 | 1010.9 |
| 20260904044740 | 82 | 137 | 1.7 | 5.2 | 0.00 | 0.14 | 0.14 | 91 | 1011.0 |
| 20260904044639 | 82 | 145 | 0.9 | 5.2 | 0.00 | 0.14 | 0.14 | 91 | 1011.0 |
| 20260904044538 | 82 | 124 | 0.9 | 5.2 | 0.00 | 0.14 | 0.14 | 91 | 1011.1 |
| 20260904044440 | 82 | 124 | 1.7 | 5.2 | 0.00 | 0.14 | 0.14 | 91 | 1011.0 |
| 20260904044339 | 82 | 100 | 2.6 | 5.2 | 0.00 | 0.14 | 0.14 | 91 | 1011.0 |
| 20260904044239 | 82 | 148 | 3.5 | 5.2 | 0.00 | 0.14 | 0.14 | 91 | 1011.0 |
| 20260904044138 | 82 | 145 | 2.6 | 5.2 | 0.00 | 0.14 | 0.14 | 91 | 1011.0 |
| 20260904044040 | 82 | 138 | 1.7 | 5.2 | 0.00 | 0.14 | 0.14 | 91 | 1011.0 |
| 20260904043938 | 82 | 104 | 0.9 | 3.5 | 0.00 | 0.14 | 0.14 | 91 | 1011.0 |
| 20260904043839 | 82 | 109 | 0.9 | 3.5 | 0.00 | 0.14 | 0.14 | 91 | 1011.0 |
| 20260904043739 | 82 | 137 | 0.9 | 3.5 | 0.00 | 0.14 | 0.14 | 91 | 1011.0 |
| 20260904043638 | 82 | 133 | 1.7 | 3.5 | 0.00 | 0.14 | 0.14 | 91 | 1011.1 |
| 20260904043538 | 82 | 141 | 1.7 | 3.5 | 0.00 | 0.14 | 0.14 | 91 | 1011.0 |
| 20260904043440 | 82 | 138 | 1.7 | 3.5 | 0.00 | 0.14 | 0.14 | 91 | 1011.0 |
| 20260904043338 | 82 | 161 | 1.7 | 2.6 | 0.00 | 0.14 | 0.14 | 91 | 1011.1 |
| 20260904043238 | 82 | 106 | 0.9 | 3.5 | 0.00 | 0.14 | 0.14 | 91 | 1011.1 |
| 20260904043137 | 82 | 114 | 0.0 | 3.5 | 0.00 | 0.14 | 0.14 | 91 | 1011.1 |
| 20260904043034 | 82 | 99 | 0.0 | 3.5 | 0.00 | 0.14 | 0.14 | 91 | 1011.1 |
| 20260904042933 | 82 | 99 | 0.0 | 3.5 | 0.00 | 0.14 | 0.14 | 91 | 1011.1 |
| 20260904042831 | 82 | 99 | 0.9 | 3.5 | 0.00 | 0.14 | 0.14 | 91 | 1011.2 |
| 20260904042731 | 82 | 97 | 0.9 | 3.5 | 0.00 | 0.14 | 0.14 | 91 | 1011.1 |
| 20260904042632 | 82 | 97 | 0.9 | 3.5 | 0.00 | 0.14 | 0.14 | 91 | 1011.2 |
| 20260904042531 | 82 | 97 | 1.7 | 3.5 | 0.00 | 0.14 | 0.14 | 91 | 1011.1 |
| 20260904042432 | 82 | 130 | 1.7 | 3.5 | 0.00 | 0.14 | 0.14 | 91 | 1011.2 |
| 20260904042333 | 82 | 141 | 1.7 | 3.5 | 0.00 | 0.14 | 0.14 | 91 | 1011.1 |
| 20260904042231 | 82 | 103 | 1.7 | 3.5 | 0.00 | 0.14 | 0.14 | 91 | 1011.1 |
| 20260904042129 | 82 | 148 | 1.7 | 3.5 | 0.00 | 0.14 | 0.14 | 91 | 1011.1 |
| 20260904042026 | 82 | 114 | 1.7 | 2.6 | 0.00 | 0.14 | 0.14 | 92 | 1011.2 |
| 20260904041927 | 82 | 114 | 1.7 | 2.6 | 0.00 | 0.14 | 0.14 | 92 | 1011.2 |
| 20260904041825 | 82 | 92 | 1.7 | 2.6 | 0.00 | 0.14 | 0.14 | 92 | 1011.1 |
| 20260904041724 | 82 | 149 | 1.7 | 3.5 | 0.00 | 0.14 | 0.14 | 92 | 1011.1 |
| 20260904041622 | 82 | 134 | 1.7 | 3.5 | 0.00 | 0.14 | 0.14 | 92 | 1011.1 |
| 20260904041517 | 82 | 104 | 1.7 | 3.5 | 0.00 | 0.14 | 0.14 | 92 | 1011.2 |
| 20260904041418 | 82 | 159 | 1.7 | 4.3 | 0.00 | 0.14 | 0.14 | 92 | 1011.2 |
| 20260904041318 | 82 | 137 | 1.7 | 4.3 | 0.00 | 0.14 | 0.14 | 92 | 1011.2 |
| 20260904041217 | 82 | 94 | 1.7 | 4.3 | 0.00 | 0.14 | 0.14 | 92 | 1011.2 |
| 20260904041114 | 82 | 106 | 1.7 | 4.3 | 0.00 | 0.14 | 0.14 | 92 | 1011.2 |
| 20260904041010 | 82 | 104 | 1.7 | 4.3 | 0.00 | 0.14 | 0.14 | 92 | 1011.2 |
| 20260904040908 | 82 | 103 | 1.7 | 4.3 | 0.00 | 0.14 | 0.14 | 92 | 1011.2 |
| 20260904040807 | 82 | 102 | 1.7 | 4.3 | 0.00 | 0.14 | 0.14 | 92 | 1011.2 |
| 20260904040705 | 82 | 137 | 2.6 | 4.3 | 0.00 | 0.14 | 0.14 | 92 | 1011.2 |
| 20260904040603 | 82 | 131 | 2.6 | 4.3 | 0.00 | 0.14 | 0.14 | 92 | 1011.2 |
| 20260904040503 | 82 | 137 | 1.7 | 4.3 | 0.00 | 0.14 | 0.14 | 92 | 1011.2 |
| 20260904040405 | 82 | 125 | 1.7 | 4.3 | 0.00 | 0.14 | 0.14 | 92 | 1011.2 |
| 20260904040302 | 82 | 125 | 1.7 | 4.3 | 0.00 | 0.14 | 0.14 | 92 | 1011.2 |
| 20260904040202 | 82 | 114 | 1.7 | 4.3 | 0.00 | 0.14 | 0.14 | 92 | 1011.2 |
| 20260904040002 | 82 | 103 | 1.7 | 4.3 | 0.00 | 0.14 | 0.14 | 92 | 1011.1 |
| 20260904035902 | 82 | 141 | 1.7 | 4.3 | 0.00 | 0.14 | 0.14 | 92 | 1011.1 |
| 20260904035804 | 82 | 151 | 1.7 | 4.3 | 0.00 | 0.14 | 0.14 | 92 | 1011.1 |
| 20260904035702 | 82 | 154 | 1.7 | 4.3 | 0.00 | 0.14 | 0.14 | 92 | 1011.2 |
| 20260904035603 | 82 | 131 | 1.7 | 4.3 | 0.00 | 0.14 | 0.14 | 92 | 1011.1 |
| 20260904035502 | 82 | 100 | 1.7 | 4.3 | 0.00 | 0.14 | 0.14 | 92 | 1011.2 |
| 20260904035402 | 82 | 94 | 1.7 | 4.3 | 0.00 | 0.14 | 0.14 | 92 | 1011.1 |
| 20260904035305 | 82 | 138 | 1.7 | 4.3 | 0.00 | 0.14 | 0.14 | 92 | 1011.1 |
| 20260904035203 | 82 | 127 | 1.7 | 3.5 | 0.00 | 0.14 | 0.14 | 92 | 1011.2 |
| 20260904035102 | 82 | 138 | 1.7 | 3.5 | 0.00 | 0.14 | 0.14 | 92 | 1011.1 |
| 20260904035004 | 82 | 161 | 1.7 | 3.5 | 0.00 | 0.14 | 0.14 | 92 | 1011.1 |
| 20260904034902 | 82 | 162 | 1.7 | 3.5 | 0.00 | 0.14 | 0.14 | 92 | 1011.1 |
| 20260904034803 | 82 | 165 | 1.7 | 3.5 | 0.00 | 0.14 | 0.14 | 92 | 1011.0 |
| 20260904034702 | 82 | 176 | 0.9 | 3.5 | 0.00 | 0.14 | 0.14 | 92 | 1011.1 |
| 20260904034604 | 82 | 148 | 0.9 | 2.6 | 0.00 | 0.14 | 0.14 | 92 | 1011.1 |
| 20260904034504 | 82 | 148 | 0.9 | 2.6 | 0.00 | 0.14 | 0.14 | 92 | 1011.1 |
| 20260904034401 | 82 | 148 | 0.9 | 2.6 | 0.00 | 0.14 | 0.14 | 92 | 1011.1 |
| 20260904034303 | 82 | 138 | 0.9 | 2.6 | 0.00 | 0.14 | 0.14 | 92 | 1011.1 |
| 20260904034203 | 82 | 137 | 0.9 | 3.5 | 0.00 | 0.14 | 0.14 | 92 | 1011.1 |
| 20260904034102 | 82 | 138 | 0.9 | 3.5 | 0.00 | 0.14 | 0.14 | 92 | 1011.2 |
| 20260904034002 | 82 | 135 | 0.0 | 3.5 | 0.00 | 0.14 | 0.14 | 92 | 1011.1 |
| 20260904033902 | 82 | 135 | 0.0 | 3.5 | 0.00 | 0.14 | 0.14 | 92 | 1011.1 |
| 20260904033802 | 82 | 135 | 0.9 | 3.5 | 0.00 | 0.14 | 0.14 | 92 | 1011.1 |
| 20260904033701 | 82 | 130 | 0.9 | 3.5 | 0.00 | 0.14 | 0.14 | 92 | 1011.2 |
| 20260904033603 | 82 | 128 | 0.9 | 3.5 | 0.00 | 0.14 | 0.14 | 92 | 1011.2 |
| 20260904033502 | 82 | 128 | 1.7 | 3.5 | 0.00 | 0.14 | 0.14 | 92 | 1011.1 |
| 20260904033404 | 82 | 128 | 1.7 | 3.5 | 0.00 | 0.14 | 0.14 | 92 | 1011.2 |
| 20260904033303 | 82 | 147 | 1.7 | 3.5 | 0.00 | 0.14 | 0.14 | 92 | 1011.2 |
| 20260904033202 | 82 | 134 | 0.9 | 3.5 | 0.00 | 0.14 | 0.14 | 92 | 1011.2 |
| 20260904033103 | 82 | 131 | 0.9 | 3.5 | 0.00 | 0.14 | 0.14 | 92 | 1011.1 |
| 20260904033005 | 82 | 131 | 1.7 | 3.5 | 0.00 | 0.14 | 0.14 | 92 | 1011.2 |
| 20260904032902 | 82 | 131 | 1.7 | 3.5 | 0.00 | 0.14 | 0.14 | 92 | 1011.2 |
| 20260904032802 | 82 | 155 | 1.7 | 3.5 | 0.00 | 0.14 | 0.14 | 92 | 1011.1 |
| 20260904032702 | 82 | 141 | 0.9 | 3.5 | 0.00 | 0.14 | 0.14 | 92 | 1011.1 |
| 20260904032603 | 82 | 130 | 0.9 | 3.5 | 0.00 | 0.14 | 0.14 | 92 | 1011.2 |
| 20260904032504 | 82 | 109 | 0.9 | 3.5 | 0.00 | 0.14 | 0.14 | 92 | 1011.2 |
| 20260904032402 | 82 | 109 | 1.7 | 3.5 | 0.00 | 0.14 | 0.14 | 92 | 1011.3 |
| 20260904032305 | 82 | 102 | 1.7 | 3.5 | 0.00 | 0.14 | 0.14 | 92 | 1011.2 |
| 20260904032203 | 82 | 124 | 1.7 | 3.5 | 0.00 | 0.14 | 0.14 | 92 | 1011.2 |
| 20260904032104 | 82 | 121 | 1.7 | 3.5 | 0.00 | 0.14 | 0.14 | 92 | 1011.2 |
| 20260904032002 | 82 | 118 | 1.7 | 3.5 | 0.00 | 0.14 | 0.14 | 92 | 1011.2 |
| 20260904031903 | 82 | 111 | 1.7 | 3.5 | 0.00 | 0.14 | 0.14 | 92 | 1011.2 |
| 20260904031802 | 82 | 147 | 2.6 | 3.5 | 0.00 | 0.14 | 0.14 | 92 | 1011.2 |
| 20260904031702 | 82 | 144 | 2.6 | 3.5 | 0.00 | 0.14 | 0.14 | 92 | 1011.2 |
| 20260904031602 | 82 | 111 | 2.6 | 3.5 | 0.00 | 0.14 | 0.14 | 92 | 1011.2 |
| 20260904031504 | 82 | 134 | 2.6 | 3.5 | 0.00 | 0.14 | 0.14 | 92 | 1011.2 |
| 20260904031403 | 82 | 103 | 1.7 | 3.5 | 0.00 | 0.14 | 0.14 | 92 | 1011.2 |
| 20260904031302 | 82 | 107 | 1.7 | 3.5 | 0.00 | 0.14 | 0.14 | 92 | 1011.2 |
| 20260904031203 | 82 | 100 | 1.7 | 3.5 | 0.00 | 0.14 | 0.14 | 92 | 1011.2 |
| 20260904031102 | 82 | 120 | 1.7 | 3.5 | 0.00 | 0.14 | 0.14 | 92 | 1011.1 |
| 20260904031004 | 82 | 142 | 1.7 | 3.5 | 0.00 | 0.14 | 0.14 | 92 | 1011.2 |
| 20260904030904 | 82 | 114 | 1.7 | 4.3 | 0.00 | 0.14 | 0.14 | 92 | 1011.2 |
| 20260904030802 | 82 | 149 | 1.7 | 4.3 | 0.00 | 0.14 | 0.14 | 92 | 1011.2 |
| 20260904030702 | 82 | 120 | 1.7 | 4.3 | 0.00 | 0.14 | 0.14 | 92 | 1011.1 |
| 20260904030602 | 82 | 145 | 1.7 | 4.3 | 0.00 | 0.14 | 0.14 | 92 | 1011.1 |
| 20260904030505 | 82 | 135 | 1.7 | 4.3 | 0.00 | 0.14 | 0.14 | 92 | 1011.1 |
| 20260904030403 | 82 | 151 | 1.7 | 4.3 | 0.00 | 0.14 | 0.14 | 92 | 1011.2 |
| 20260904030302 | 82 | 161 | 1.7 | 4.3 | 0.00 | 0.14 | 0.14 | 91 | 1011.1 |
| 20260904030203 | 82 | 130 | 1.7 | 4.3 | 0.00 | 0.14 | 0.14 | 91 | 1011.1 |
| 20260904030103 | 82 | 127 | 1.7 | 4.3 | 0.00 | 0.14 | 0.14 | 91 | 1011.1 |
| 20260904030006 | 82 | 135 | 1.7 | 4.3 | 0.00 | 0.14 | 0.14 | 91 | 1011.0 |
| 20260904025903 | 82 | 169 | 0.9 | 4.3 | 0.00 | 0.14 | 0.14 | 91 | 1011.1 |
| 20260904025803 | 82 | 137 | 1.7 | 4.3 | 0.00 | 0.14 | 0.14 | 91 | 1011.1 |
| 20260904025702 | 82 | 154 | 1.7 | 4.3 | 0.00 | 0.14 | 0.14 | 91 | 1011.1 |
| 20260904025602 | 82 | 155 | 2.6 | 4.3 | 0.00 | 0.14 | 0.14 | 91 | 1011.1 |
| 20260904025505 | 82 | 135 | 1.7 | 4.3 | 0.00 | 0.14 | 0.14 | 91 | 1011.0 |
| 20260904025404 | 82 | 195 | 1.7 | 4.3 | 0.00 | 0.14 | 0.14 | 91 | 1011.1 |
| 20260904025305 | 82 | 148 | 1.7 | 4.3 | 0.00 | 0.14 | 0.14 | 91 | 1011.1 |
| 20260904025203 | 82 | 144 | 0.9 | 4.3 | 0.00 | 0.14 | 0.14 | 91 | 1011.1 |
| 20260904025102 | 82 | 134 | 1.7 | 4.3 | 0.00 | 0.14 | 0.14 | 91 | 1011.1 |
| 20260904025002 | 82 | 134 | 1.7 | 4.3 | 0.00 | 0.14 | 0.14 | 91 | 1011.1 |
| 20260904024902 | 82 | 117 | 1.7 | 4.3 | 0.00 | 0.14 | 0.14 | 91 | 1011.1 |
| 20260904024804 | 82 | 117 | 1.7 | 4.3 | 0.00 | 0.14 | 0.14 | 91 | 1011.1 |
| 20260904024702 | 82 | 128 | 1.7 | 4.3 | 0.00 | 0.14 | 0.14 | 91 | 1011.0 |
| 20260904024603 | 82 | 121 | 1.7 | 4.3 | 0.00 | 0.14 | 0.14 | 91 | 1011.0 |
| 20260904024505 | 82 | 121 | 1.7 | 4.3 | 0.00 | 0.14 | 0.14 | 91 | 1011.1 |
| 20260904024402 | 82 | 140 | 1.7 | 4.3 | 0.00 | 0.14 | 0.14 | 91 | 1011.0 |
| 20260904024302 | 82 | 140 | 1.7 | 4.3 | 0.00 | 0.14 | 0.14 | 91 | 1011.0 |
| 20260904024202 | 82 | 109 | 1.7 | 4.3 | 0.00 | 0.14 | 0.14 | 91 | 1011.0 |
| 20260904024103 | 82 | 109 | 2.6 | 5.2 | 0.00 | 0.14 | 0.14 | 91 | 1011.0 |
| 20260904024002 | 82 | 120 | 1.7 | 5.2 | 0.00 | 0.14 | 0.14 | 91 | 1011.0 |
| 20260904023902 | 82 | 103 | 1.7 | 5.2 | 0.00 | 0.14 | 0.14 | 91 | 1011.0 |
| 20260904023803 | 82 | 130 | 1.7 | 5.2 | 0.00 | 0.14 | 0.14 | 90 | 1011.0 |
| 20260904023702 | 82 | 134 | 1.7 | 5.2 | 0.00 | 0.14 | 0.14 | 90 | 1011.0 |
| 20260904023603 | 82 | 97 | 1.7 | 5.2 | 0.00 | 0.14 | 0.14 | 90 | 1010.9 |
| 20260904023502 | 82 | 133 | 2.6 | 5.2 | 0.00 | 0.14 | 0.14 | 90 | 1010.9 |
| 20260904023402 | 82 | 124 | 2.6 | 5.2 | 0.00 | 0.14 | 0.14 | 90 | 1010.9 |
| 20260904023303 | 82 | 97 | 3.5 | 5.2 | 0.00 | 0.14 | 0.14 | 90 | 1010.9 |
| 20260904023203 | 82 | 117 | 3.5 | 5.2 | 0.00 | 0.14 | 0.14 | 90 | 1010.9 |
| 20260904023103 | 82 | 110 | 2.6 | 4.3 | 0.00 | 0.14 | 0.14 | 90 | 1010.9 |
| 20260904023003 | 82 | 103 | 1.7 | 3.5 | 0.00 | 0.14 | 0.14 | 90 | 1010.9 |
| 20260904022902 | 82 | 62 | 1.7 | 4.3 | 0.00 | 0.14 | 0.14 | 90 | 1010.9 |
| 20260904022804 | 82 | 120 | 1.7 | 4.3 | 0.00 | 0.14 | 0.14 | 90 | 1010.9 |
| 20260904022703 | 82 | 127 | 1.7 | 4.3 | 0.00 | 0.14 | 0.14 | 90 | 1010.8 |
| 20260904022603 | 82 | 97 | 1.7 | 4.3 | 0.00 | 0.14 | 0.14 | 90 | 1010.8 |
| 20260904022502 | 82 | 152 | 1.7 | 4.3 | 0.00 | 0.14 | 0.14 | 90 | 1010.8 |
| 20260904022405 | 82 | 159 | 1.7 | 4.3 | 0.00 | 0.14 | 0.14 | 90 | 1010.8 |
| 20260904022305 | 82 | 113 | 0.9 | 4.3 | 0.00 | 0.14 | 0.14 | 90 | 1010.8 |
| 20260904022201 | 82 | 113 | 0.9 | 4.3 | 0.00 | 0.14 | 0.14 | 90 | 1010.8 |
| 20260904022103 | 82 | 134 | 2.6 | 4.3 | 0.00 | 0.14 | 0.14 | 90 | 1010.8 |
| 20260904022004 | 82 | 113 | 2.6 | 4.3 | 0.00 | 0.14 | 0.14 | 90 | 1010.8 |
| 20260904021902 | 83 | 111 | 2.6 | 4.3 | 0.00 | 0.14 | 0.14 | 90 | 1010.8 |
| 20260904021802 | 83 | 94 | 1.7 | 4.3 | 0.00 | 0.14 | 0.14 | 90 | 1010.8 |
| 20260904021704 | 83 | 164 | 1.7 | 4.3 | 0.00 | 0.14 | 0.14 | 90 | 1010.6 |
| 20260904021601 | 82 | 104 | 0.9 | 4.3 | 0.00 | 0.14 | 0.14 | 90 | 1010.7 |
| 20260904021503 | 83 | 104 | 1.7 | 4.3 | 0.00 | 0.14 | 0.14 | 90 | 1010.6 |
| 20260904021404 | 83 | 113 | 3.5 | 5.2 | 0.00 | 0.14 | 0.14 | 90 | 1010.6 |
| 20260904021304 | 83 | 113 | 3.5 | 5.2 | 0.00 | 0.14 | 0.14 | 90 | 1010.6 |
| 20260904021203 | 83 | 113 | 3.5 | 5.2 | 0.00 | 0.14 | 0.14 | 90 | 1010.6 |
| 20260904021103 | 83 | 113 | 3.5 | 5.2 | 0.00 | 0.14 | 0.14 | 90 | 1010.6 |
| 20260904021004 | 83 | 116 | 3.5 | 5.2 | 0.00 | 0.14 | 0.14 | 90 | 1010.6 |
| 20260904020904 | 83 | 116 | 3.5 | 5.2 | 0.00 | 0.14 | 0.14 | 90 | 1010.6 |
| 20260904020803 | 83 | 116 | 3.5 | 5.2 | 0.00 | 0.14 | 0.14 | 90 | 1010.5 |
| 20260904020648 | 83 | 116 | 3.5 | 5.2 | 0.00 | 0.14 | 0.14 | 90 | 1010.5 |
| 20260904020546 | 83 | 110 | 3.5 | 5.2 | 0.00 | 0.14 | 0.14 | 90 | 1010.6 |
| 20260904020445 | 83 | 116 | 3.5 | 5.2 | 0.00 | 0.14 | 0.14 | 90 | 1010.5 |
| 20260904020343 | 83 | 109 | 3.5 | 5.2 | 0.00 | 0.14 | 0.14 | 90 | 1010.5 |
| 20260904020243 | 83 | 104 | 3.5 | 5.2 | 0.00 | 0.14 | 0.14 | 90 | 1010.6 |
| 20260904020140 | 83 | 107 | 3.5 | 5.2 | 0.00 | 0.14 | 0.14 | 90 | 1010.5 |
| 20260904020041 | 83 | 97 | 3.5 | 5.2 | 0.00 | 0.14 | 0.14 | 90 | 1010.5 |
| 20260904015934 | 83 | 111 | 3.5 | 5.2 | 0.00 | 0.14 | 0.14 | 90 | 1010.5 |
| 20260904015837 | 83 | 104 | 3.5 | 5.2 | 0.00 | 0.14 | 0.14 | 90 | 1010.5 |
| 20260904015735 | 82 | 87 | 2.6 | 5.2 | 0.00 | 0.14 | 0.14 | 90 | 1010.6 |
| 20260904015635 | 82 | 107 | 2.6 | 4.3 | 0.00 | 0.14 | 0.14 | 90 | 1010.5 |
| 20260904015535 | 82 | 109 | 2.6 | 4.3 | 0.00 | 0.14 | 0.14 | 90 | 1010.6 |
| 20260904015435 | 82 | 104 | 2.6 | 4.3 | 0.00 | 0.14 | 0.14 | 90 | 1010.5 |
| 20260904015335 | 82 | 100 | 1.7 | 4.3 | 0.00 | 0.14 | 0.14 | 90 | 1010.5 |
| 20260904015234 | 82 | 99 | 1.7 | 4.3 | 0.00 | 0.14 | 0.14 | 90 | 1010.5 |
| 20260904015135 | 82 | 97 | 2.6 | 4.3 | 0.00 | 0.14 | 0.14 | 90 | 1010.5 |
| 20260904015034 | 82 | 99 | 3.5 | 4.3 | 0.00 | 0.14 | 0.14 | 90 | 1010.4 |
| 20260904014933 | 82 | 104 | 3.5 | 4.3 | 0.00 | 0.14 | 0.14 | 90 | 1010.5 |
| 20260904014835 | 82 | 117 | 3.5 | 4.3 | 0.00 | 0.14 | 0.14 | 90 | 1010.5 |
| 20260904014735 | 82 | 111 | 3.5 | 4.3 | 0.00 | 0.14 | 0.14 | 90 | 1010.5 |
| 20260904014634 | 82 | 104 | 3.5 | 4.3 | 0.00 | 0.14 | 0.14 | 90 | 1010.5 |
| 20260904014535 | 82 | 109 | 3.5 | 4.3 | 0.00 | 0.14 | 0.14 | 90 | 1010.5 |
| 20260904014436 | 82 | 111 | 3.5 | 4.3 | 0.00 | 0.14 | 0.14 | 90 | 1010.5 |
| 20260904014335 | 82 | 111 | 3.5 | 4.3 | 0.00 | 0.14 | 0.14 | 90 | 1010.4 |
| 20260904014235 | 82 | 121 | 2.6 | 4.3 | 0.00 | 0.14 | 0.14 | 90 | 1010.4 |
| 20260904014135 | 82 | 48 | 1.7 | 3.5 | 0.00 | 0.14 | 0.14 | 90 | 1010.4 |
| 20260904014034 | 82 | 35 | 1.7 | 2.6 | 0.00 | 0.14 | 0.14 | 90 | 1010.4 |
| 20260904013934 | 82 | 35 | 1.7 | 2.6 | 0.00 | 0.14 | 0.14 | 90 | 1010.4 |
| 20260904013835 | 82 | 32 | 1.7 | 2.6 | 0.00 | 0.14 | 0.14 | 90 | 1010.4 |
| 20260904013736 | 82 | 23 | 1.7 | 2.6 | 0.00 | 0.14 | 0.14 | 90 | 1010.3 |
| 20260904013634 | 82 | 23 | 0.9 | 2.6 | 0.00 | 0.14 | 0.14 | 90 | 1010.3 |
| 20260904013535 | 82 | 23 | 0.9 | 2.6 | 0.00 | 0.14 | 0.14 | 90 | 1010.4 |
| 20260904013435 | 82 | 23 | 1.7 | 2.6 | 0.00 | 0.14 | 0.14 | 90 | 1010.4 |
| 20260904013335 | 82 | 23 | 1.7 | 2.6 | 0.00 | 0.14 | 0.14 | 90 | 1010.3 |
| 20260904013234 | 82 | 23 | 1.7 | 2.6 | 0.00 | 0.14 | 0.14 | 90 | 1010.4 |
| 20260904013134 | 82 | 23 | 1.7 | 2.6 | 0.00 | 0.14 | 0.14 | 90 | 1010.3 |
| 20260904013035 | 82 | 23 | 1.7 | 2.6 | 0.00 | 0.14 | 0.14 | 90 | 1010.3 |
| 20260904012934 | 82 | 23 | 1.7 | 2.6 | 0.00 | 0.14 | 0.14 | 90 | 1010.3 |
| 20260904012835 | 82 | 23 | 1.7 | 2.6 | 0.00 | 0.14 | 0.14 | 90 | 1010.3 |
| 20260904012735 | 82 | 23 | 1.7 | 1.7 | 0.00 | 0.14 | 0.14 | 90 | 1010.3 |
| 20260904012634 | 82 | 23 | 0.9 | 1.7 | 0.00 | 0.14 | 0.14 | 90 | 1010.3 |
| 20260904012534 | 82 | 18 | 0.0 | 0.0 | 0.00 | 0.14 | 0.14 | 90 | 1010.2 |
| 20260904012435 | 82 | 20 | 0.0 | 0.0 | 0.00 | 0.14 | 0.14 | 89 | 1010.3 |
| 20260904012335 | 82 | 20 | 0.0 | 0.0 | 0.00 | 0.14 | 0.14 | 89 | 1010.3 |
| 20260904012234 | 82 | 20 | 0.0 | 0.0 | 0.00 | 0.14 | 0.14 | 89 | 1010.3 |
| 20260904012134 | 82 | 20 | 0.0 | 0.0 | 0.00 | 0.14 | 0.14 | 89 | 1010.2 |
| 20260904012035 | 82 | 20 | 0.0 | 0.0 | 0.00 | 0.14 | 0.14 | 89 | 1010.3 |
| 20260904011933 | 82 | 21 | 0.0 | 0.0 | 0.00 | 0.14 | 0.14 | 89 | 1010.2 |
| 20260904011833 | 82 | 21 | 0.0 | 0.0 | 0.00 | 0.14 | 0.14 | 89 | 1010.2 |
| 20260904011734 | 82 | 23 | 0.0 | 0.0 | 0.00 | 0.14 | 0.14 | 89 | 1010.3 |
| 20260904011634 | 82 | 23 | 0.0 | 0.9 | 0.00 | 0.14 | 0.14 | 89 | 1010.3 |
| 20260904011533 | 82 | 23 | 0.0 | 1.7 | 0.00 | 0.14 | 0.14 | 89 | 1010.3 |
| 20260904011433 | 82 | 23 | 0.0 | 1.7 | 0.00 | 0.14 | 0.14 | 89 | 1010.3 |
| 20260904011336 | 82 | 23 | 0.0 | 2.6 | 0.00 | 0.14 | 0.14 | 89 | 1010.3 |
| 20260904011234 | 82 | 23 | 0.0 | 2.6 | 0.00 | 0.14 | 0.14 | 89 | 1010.2 |
| 20260904011135 | 82 | 23 | 0.0 | 2.6 | 0.00 | 0.14 | 0.14 | 89 | 1010.3 |
| 20260904011034 | 82 | 23 | 0.0 | 2.6 | 0.00 | 0.14 | 0.14 | 89 | 1010.2 |
| 20260904010934 | 82 | 23 | 0.0 | 2.6 | 0.00 | 0.14 | 0.14 | 89 | 1010.2 |
| 20260904010834 | 82 | 23 | 0.0 | 2.6 | 0.00 | 0.14 | 0.14 | 88 | 1010.2 |
| 20260904010734 | 82 | 23 | 0.9 | 2.6 | 0.00 | 0.14 | 0.14 | 88 | 1010.2 |
| 20260904010634 | 82 | 23 | 0.9 | 2.6 | 0.00 | 0.14 | 0.14 | 88 | 1010.1 |
| 20260904010533 | 82 | 23 | 1.7 | 2.6 | 0.00 | 0.14 | 0.14 | 88 | 1010.1 |
| 20260904010434 | 82 | 23 | 1.7 | 2.6 | 0.00 | 0.14 | 0.14 | 88 | 1010.2 |
| 20260904010334 | 82 | 23 | 1.7 | 2.6 | 0.00 | 0.14 | 0.14 | 88 | 1010.2 |
| 20260904010234 | 82 | 23 | 1.7 | 2.6 | 0.00 | 0.14 | 0.14 | 88 | 1010.2 |
| 20260904010133 | 82 | 23 | 1.7 | 2.6 | 0.00 | 0.14 | 0.14 | 88 | 1010.1 |
| 20260904010033 | 82 | 23 | 1.7 | 2.6 | 0.00 | 0.14 | 0.14 | 88 | 1010.2 |
| 20260904005934 | 82 | 23 | 1.7 | 2.6 | 0.00 | 0.14 | 0.14 | 88 | 1010.2 |
| 20260904005834 | 82 | 23 | 2.6 | 2.6 | 0.00 | 0.14 | 0.14 | 88 | 1010.2 |
| 20260904005734 | 82 | 23 | 1.7 | 2.6 | 0.00 | 0.14 | 0.14 | 88 | 1010.1 |
| 20260904005636 | 82 | 23 | 0.0 | 2.6 | 0.00 | 0.14 | 0.14 | 88 | 1010.2 |
| 20260904005533 | 82 | 23 | 0.0 | 2.6 | 0.00 | 0.14 | 0.14 | 88 | 1010.2 |
| 20260904005434 | 82 | 23 | 0.0 | 2.6 | 0.00 | 0.14 | 0.14 | 88 | 1010.2 |
| 20260904005333 | 82 | 23 | 0.0 | 2.6 | 0.00 | 0.14 | 0.14 | 88 | 1010.2 |
| 20260904005234 | 82 | 23 | 0.0 | 2.6 | 0.00 | 0.14 | 0.14 | 88 | 1010.2 |
| 20260904005133 | 82 | 23 | 0.0 | 3.5 | 0.00 | 0.14 | 0.14 | 88 | 1010.2 |
| 20260904005033 | 82 | 23 | 0.9 | 3.5 | 0.00 | 0.14 | 0.14 | 87 | 1010.2 |
| 20260904004934 | 82 | 23 | 1.7 | 3.5 | 0.00 | 0.14 | 0.14 | 87 | 1010.2 |
| 20260904004833 | 82 | 23 | 1.7 | 3.5 | 0.00 | 0.14 | 0.14 | 87 | 1010.2 |
| 20260904004733 | 82 | 23 | 1.7 | 3.5 | 0.00 | 0.14 | 0.14 | 87 | 1010.2 |
| 20260904004633 | 82 | 23 | 0.9 | 3.5 | 0.00 | 0.14 | 0.14 | 87 | 1010.1 |
| 20260904004535 | 83 | 23 | 1.7 | 3.5 | 0.00 | 0.14 | 0.14 | 87 | 1010.2 |
| 20260904004433 | 83 | 23 | 1.7 | 3.5 | 0.00 | 0.14 | 0.14 | 87 | 1010.2 |
| 20260904004333 | 83 | 23 | 1.7 | 3.5 | 0.00 | 0.14 | 0.14 | 87 | 1010.1 |
| 20260904004234 | 83 | 23 | 1.7 | 3.5 | 0.00 | 0.14 | 0.14 | 87 | 1010.1 |
| 20260904004133 | 83 | 21 | 1.7 | 2.6 | 0.00 | 0.14 | 0.14 | 87 | 1010.1 |
| 20260904004033 | 83 | 21 | 0.9 | 2.6 | 0.00 | 0.14 | 0.14 | 87 | 1010.2 |
| 20260904003932 | 83 | 18 | 0.0 | 0.0 | 0.00 | 0.14 | 0.14 | 87 | 1010.1 |
| 20260904003833 | 83 | 13 | 0.0 | 0.0 | 0.00 | 0.14 | 0.14 | 87 | 1010.2 |
| 20260904003733 | 83 | 13 | 0.0 | 0.0 | 0.00 | 0.14 | 0.14 | 87 | 1010.1 |
| 20260904003633 | 83 | 11 | 0.0 | 0.0 | 0.00 | 0.14 | 0.14 | 87 | 1010.1 |
| 20260904003534 | 83 | 11 | 0.0 | 0.0 | 0.00 | 0.14 | 0.14 | 87 | 1010.2 |
| 20260904003433 | 83 | 11 | 0.0 | 0.0 | 0.00 | 0.14 | 0.14 | 87 | 1010.1 |
| 20260904003335 | 83 | 11 | 0.0 | 0.0 | 0.00 | 0.14 | 0.14 | 86 | 1010.2 |
| 20260904003234 | 83 | 6 | 0.0 | 0.0 | 0.00 | 0.14 | 0.14 | 86 | 1010.1 |
| 20260904003133 | 83 | 6 | 0.0 | 0.0 | 0.00 | 0.14 | 0.14 | 86 | 1010.2 |
| 20260904003033 | 83 | 6 | 0.0 | 0.0 | 0.00 | 0.14 | 0.14 | 86 | 1010.2 |
| 20260904002932 | 83 | 6 | 0.0 | 0.0 | 0.00 | 0.14 | 0.14 | 86 | 1010.2 |
| 20260904002834 | 83 | 6 | 0.0 | 0.0 | 0.00 | 0.14 | 0.14 | 86 | 1010.3 |
| 20260904002732 | 83 | 6 | 0.0 | 0.0 | 0.00 | 0.14 | 0.14 | 86 | 1010.2 |
| 20260904002632 | 83 | 6 | 0.0 | 0.0 | 0.00 | 0.14 | 0.14 | 86 | 1010.2 |
| 20260904002531 | 83 | 6 | 0.0 | 0.0 | 0.00 | 0.14 | 0.14 | 86 | 1010.3 |
| 20260904002433 | 83 | 6 | 0.0 | 0.0 | 0.00 | 0.14 | 0.14 | 86 | 1010.2 |
| 20260904002332 | 83 | 6 | 0.0 | 0.0 | 0.00 | 0.14 | 0.14 | 86 | 1010.2 |
| 20260904002232 | 84 | 6 | 0.0 | 0.0 | 0.00 | 0.14 | 0.14 | 86 | 1010.2 |
| 20260904002131 | 83 | 6 | 0.0 | 0.0 | 0.00 | 0.14 | 0.14 | 85 | 1010.3 |
| 20260904002031 | 84 | 6 | 0.0 | 0.0 | 0.00 | 0.14 | 0.14 | 85 | 1010.2 |
| 20260904001931 | 84 | 6 | 0.0 | 0.0 | 0.00 | 0.14 | 0.14 | 85 | 1010.2 |
| 20260904001831 | 84 | 6 | 0.0 | 0.0 | 0.00 | 0.14 | 0.14 | 85 | 1010.2 |
| 20260904001732 | 84 | 6 | 0.0 | 0.0 | 0.00 | 0.14 | 0.14 | 85 | 1010.3 |
| 20260904001631 | 84 | 6 | 0.0 | 0.0 | 0.00 | 0.14 | 0.14 | 85 | 1010.3 |
| 20260904001533 | 84 | 6 | 0.0 | 0.0 | 0.00 | 0.14 | 0.14 | 85 | 1010.3 |
| 20260904001431 | 84 | 6 | 0.0 | 0.0 | 0.00 | 0.14 | 0.14 | 84 | 1010.3 |
| 20260904001332 | 84 | 6 | 0.0 | 0.0 | 0.00 | 0.14 | 0.14 | 85 | 1010.3 |
| 20260904001232 | 83 | 6 | 0.0 | 0.0 | 0.00 | 0.14 | 0.14 | 84 | 1010.3 |
| 20260904001131 | 83 | 6 | 0.0 | 0.0 | 0.00 | 0.14 | 0.14 | 84 | 1010.2 |
| 20260904001032 | 83 | 6 | 0.0 | 0.0 | 0.00 | 0.14 | 0.14 | 84 | 1010.3 |
| 20260904000931 | 83 | 6 | 0.0 | 0.0 | 0.00 | 0.14 | 0.14 | 84 | 1010.3 |
| 20260904000832 | 83 | 6 | 0.0 | 0.0 | 0.00 | 0.14 | 0.14 | 84 | 1010.3 |
| 20260904000719 | 83 | 6 | 0.0 | 0.0 | 0.00 | 0.14 | 0.14 | 84 | 1010.3 |
| 20260904000616 | 83 | 6 | 0.0 | 0.0 | 0.00 | 0.14 | 0.14 | 84 | 1010.3 |
| 20260904000515 | 83 | 6 | 0.0 | 0.0 | 0.00 | 0.14 | 0.14 | 84 | 1010.3 |
| 20260904000413 | 83 | 6 | 0.0 | 0.0 | 0.00 | 0.14 | 0.14 | 84 | 1010.3 |
| 20260904000311 | 83 | 6 | 0.0 | 0.0 | 0.00 | 0.14 | 0.14 | 84 | 1010.3 |
| 20260904000211 | 83 | 6 | 0.0 | 0.0 | 0.00 | 0.14 | 0.14 | 84 | 1010.4 |
| 20260904000109 | 83 | 7 | 0.0 | 0.0 | 0.00 | 0.14 | 0.14 | 84 | 1010.3 |
| 20260904000007 | 84 | 7 | 0.0 | 0.0 | 0.00 | 0.14 | 0.14 | 85 | 1010.4 |
| 20260903235905 | 84 | 7 | 0.0 | 0.0 | 0.00 | 0.14 | 0.14 | 85 | 1010.3 |
| 20260903235804 | 84 | 7 | 0.0 | 0.0 | 0.00 | 0.14 | 0.14 | 85 | 1010.4 |
| 20260903235703 | 84 | 7 | 0.0 | 0.0 | 0.00 | 0.14 | 0.14 | 85 | 1010.4 |
| 20260903235603 | 84 | 7 | 0.0 | 0.0 | 0.00 | 0.14 | 0.14 | 85 | 1010.4 |
| 20260903235502 | 84 | 7 | 0.0 | 0.0 | 0.00 | 0.14 | 0.14 | 85 | 1010.4 |
| 20260903235404 | 84 | 7 | 0.0 | 0.0 | 0.00 | 0.14 | 0.14 | 85 | 1010.4 |
| 20260903235305 | 84 | 7 | 0.0 | 0.0 | 0.00 | 0.14 | 0.14 | 85 | 1010.4 |
| 20260903235205 | 83 | 7 | 0.0 | 0.0 | 0.00 | 0.14 | 0.14 | 85 | 1010.5 |
| 20260903235101 | 83 | 10 | 0.0 | 0.0 | 0.00 | 0.14 | 0.14 | 85 | 1010.4 |
| 20260903235004 | 83 | 11 | 0.0 | 0.0 | 0.00 | 0.14 | 0.14 | 85 | 1010.4 |
| 20260903234902 | 83 | 11 | 0.0 | 0.0 | 0.00 | 0.14 | 0.14 | 85 | 1010.4 |
| 20260903234802 | 83 | 11 | 0.0 | 0.0 | 0.00 | 0.14 | 0.14 | 85 | 1010.4 |
| 20260903234702 | 83 | 11 | 0.0 | 0.0 | 0.00 | 0.14 | 0.14 | 85 | 1010.3 |
| 20260903234603 | 83 | 11 | 0.0 | 0.0 | 0.00 | 0.14 | 0.14 | 85 | 1010.5 |
| 20260903234503 | 83 | 11 | 0.0 | 0.0 | 0.00 | 0.14 | 0.14 | 85 | 1010.4 |
| 20260903234403 | 83 | 11 | 0.0 | 0.0 | 0.00 | 0.14 | 0.14 | 86 | 1010.5 |
| 20260903234302 | 83 | 11 | 0.0 | 0.0 | 0.00 | 0.14 | 0.14 | 86 | 1010.4 |
| 20260903234204 | 83 | 11 | 0.0 | 0.0 | 0.00 | 0.14 | 0.14 | 86 | 1010.4 |
| 20260903234102 | 83 | 11 | 0.0 | 0.0 | 0.00 | 0.14 | 0.14 | 86 | 1010.4 |
| 20260903234004 | 83 | 11 | 0.0 | 0.0 | 0.00 | 0.14 | 0.14 | 86 | 1010.4 |
| 20260903233901 | 83 | 11 | 0.0 | 0.0 | 0.00 | 0.14 | 0.14 | 86 | 1010.4 |
| 20260903233802 | 83 | 11 | 0.0 | 0.0 | 0.00 | 0.14 | 0.14 | 85 | 1010.4 |
| 20260903233703 | 83 | 11 | 0.0 | 0.0 | 0.00 | 0.14 | 0.14 | 85 | 1010.5 |
| 20260903233602 | 83 | 11 | 0.0 | 0.0 | 0.00 | 0.14 | 0.14 | 85 | 1010.4 |
| 20260903233502 | 83 | 11 | 0.0 | 0.0 | 0.00 | 0.14 | 0.14 | 85 | 1010.5 |
| 20260903233402 | 84 | 11 | 0.0 | 0.0 | 0.00 | 0.14 | 0.14 | 85 | 1010.5 |
| 20260903233302 | 84 | 11 | 0.0 | 0.0 | 0.00 | 0.14 | 0.14 | 85 | 1010.4 |
| 20260903233203 | 84 | 11 | 0.0 | 0.0 | 0.00 | 0.14 | 0.14 | 85 | 1010.4 |
| 20260903233102 | 84 | 11 | 0.0 | 0.0 | 0.00 | 0.14 | 0.14 | 85 | 1010.4 |
| 20260903233004 | 84 | 11 | 0.0 | 0.0 | 0.00 | 0.14 | 0.14 | 85 | 1010.4 |
| 20260903232903 | 84 | 11 | 0.0 | 0.0 | 0.00 | 0.14 | 0.14 | 85 | 1010.5 |
| 20260903232803 | 84 | 11 | 0.0 | 0.0 | 0.00 | 0.14 | 0.14 | 85 | 1010.4 |
| 20260903232703 | 83 | 11 | 0.0 | 0.0 | 0.00 | 0.14 | 0.14 | 85 | 1010.4 |
| 20260903232602 | 83 | 11 | 0.0 | 0.0 | 0.00 | 0.14 | 0.14 | 84 | 1010.3 |
| 20260903232503 | 83 | 11 | 0.0 | 0.0 | 0.00 | 0.14 | 0.14 | 84 | 1010.4 |
| 20260903232401 | 83 | 11 | 0.0 | 0.0 | 0.00 | 0.14 | 0.14 | 84 | 1010.4 |
| 20260903232305 | 83 | 11 | 0.0 | 0.0 | 0.00 | 0.14 | 0.14 | 84 | 1010.4 |
| 20260903232202 | 83 | 11 | 0.0 | 0.9 | 0.00 | 0.14 | 0.14 | 84 | 1010.5 |
| 20260903232102 | 83 | 11 | 0.0 | 1.7 | 0.00 | 0.14 | 0.14 | 85 | 1010.4 |
| 20260903232003 | 83 | 11 | 0.0 | 1.7 | 0.00 | 0.14 | 0.14 | 85 | 1010.4 |
| 20260903231903 | 83 | 11 | 0.0 | 1.7 | 0.00 | 0.14 | 0.14 | 85 | 1010.5 |
| 20260903231803 | 83 | 11 | 0.0 | 1.7 | 0.00 | 0.14 | 0.14 | 85 | 1010.4 |
| 20260903231703 | 83 | 11 | 0.0 | 1.7 | 0.00 | 0.14 | 0.14 | 84 | 1010.5 |
| 20260903231603 | 83 | 11 | 0.0 | 2.6 | 0.00 | 0.14 | 0.14 | 85 | 1010.5 |
| 20260903231501 | 83 | 11 | 0.0 | 2.6 | 0.00 | 0.14 | 0.14 | 85 | 1010.6 |
| 20260903231359 | 83 | 11 | 0.0 | 2.6 | 0.00 | 0.14 | 0.14 | 85 | 1010.5 |
| 20260903231256 | 83 | 11 | 0.9 | 2.6 | 0.00 | 0.14 | 0.14 | 85 | 1010.5 |
| 20260903231157 | 83 | 11 | 0.9 | 2.6 | 0.00 | 0.14 | 0.14 | 85 | 1010.5 |
| 20260903231055 | 83 | 11 | 0.9 | 2.6 | 0.00 | 0.14 | 0.14 | 85 | 1010.4 |
| 20260903230954 | 83 | 11 | 0.9 | 2.6 | 0.00 | 0.14 | 0.14 | 85 | 1010.5 |
| 20260903230852 | 83 | 11 | 0.9 | 2.6 | 0.00 | 0.14 | 0.14 | 85 | 1010.5 |
| 20260903230749 | 83 | 11 | 1.7 | 2.6 | 0.00 | 0.14 | 0.14 | 84 | 1010.5 |
| 20260903230649 | 83 | 11 | 0.9 | 2.6 | 0.00 | 0.14 | 0.14 | 84 | 1010.5 |
| 20260903230549 | 83 | 30 | 0.9 | 2.6 | 0.00 | 0.14 | 0.14 | 85 | 1010.5 |
| 20260903230447 | 83 | 30 | 0.9 | 2.6 | 0.00 | 0.14 | 0.14 | 85 | 1010.5 |
| 20260903230345 | 83 | 30 | 0.9 | 2.6 | 0.00 | 0.14 | 0.14 | 84 | 1010.4 |
| 20260903230241 | 83 | 30 | 1.7 | 2.6 | 0.00 | 0.14 | 0.14 | 84 | 1010.5 |
| 20260903230140 | 83 | 30 | 1.7 | 2.6 | 0.00 | 0.14 | 0.14 | 84 | 1010.5 |
| 20260903230041 | 84 | 31 | 1.7 | 2.6 | 0.00 | 0.14 | 0.14 | 84 | 1010.4 |
| 20260903225939 | 84 | 31 | 1.7 | 2.6 | 0.00 | 0.14 | 0.14 | 84 | 1010.4 |
| 20260903225837 | 84 | 31 | 0.9 | 2.6 | 0.00 | 0.14 | 0.14 | 84 | 1010.4 |
| 20260903225731 | 84 | 86 | 0.0 | 2.6 | 0.00 | 0.14 | 0.14 | 84 | 1010.3 |
| 20260903225632 | 83 | 86 | 0.0 | 3.5 | 0.00 | 0.14 | 0.14 | 84 | 1010.3 |
| 20260903225532 | 83 | 86 | 0.9 | 4.3 | 0.00 | 0.14 | 0.14 | 84 | 1010.4 |
| 20260903225431 | 83 | 87 | 1.7 | 4.3 | 0.00 | 0.14 | 0.14 | 83 | 1010.4 |
| 20260903225331 | 83 | 87 | 0.9 | 4.3 | 0.00 | 0.14 | 0.14 | 84 | 1010.5 |
| 20260903225230 | 83 | 87 | 0.0 | 4.3 | 0.00 | 0.14 | 0.14 | 84 | 1010.4 |
| 20260903225131 | 83 | 87 | 0.0 | 4.3 | 0.00 | 0.14 | 0.14 | 84 | 1010.4 |
| 20260903225032 | 83 | 87 | 0.9 | 5.2 | 0.00 | 0.14 | 0.14 | 84 | 1010.4 |
| 20260903224931 | 83 | 87 | 1.7 | 5.2 | 0.00 | 0.14 | 0.14 | 84 | 1010.4 |
| 20260903224832 | 83 | 86 | 2.6 | 5.2 | 0.00 | 0.14 | 0.14 | 84 | 1010.4 |
| 20260903224732 | 83 | 86 | 2.6 | 5.2 | 0.00 | 0.14 | 0.14 | 84 | 1010.4 |
| 20260903224631 | 83 | 85 | 3.5 | 5.2 | 0.00 | 0.14 | 0.14 | 84 | 1010.4 |
| 20260903224531 | 83 | 92 | 3.5 | 6.1 | 0.00 | 0.14 | 0.14 | 84 | 1010.4 |
| 20260903224431 | 83 | 55 | 3.5 | 6.1 | 0.00 | 0.14 | 0.14 | 84 | 1010.4 |
| 20260903224330 | 83 | 55 | 3.5 | 6.1 | 0.00 | 0.14 | 0.14 | 84 | 1010.4 |
| 20260903224230 | 83 | 62 | 3.5 | 6.1 | 0.00 | 0.14 | 0.14 | 84 | 1010.4 |
| 20260903224131 | 83 | 49 | 3.5 | 6.1 | 0.00 | 0.14 | 0.14 | 84 | 1010.3 |
| 20260903224030 | 83 | 89 | 3.5 | 6.1 | 0.00 | 0.14 | 0.14 | 84 | 1010.3 |
| 20260903223931 | 83 | 87 | 3.5 | 6.1 | 0.00 | 0.14 | 0.14 | 84 | 1010.4 |
| 20260903223832 | 83 | 61 | 3.5 | 6.1 | 0.00 | 0.14 | 0.14 | 84 | 1010.4 |
| 20260903223732 | 83 | 73 | 4.3 | 6.1 | 0.00 | 0.14 | 0.14 | 84 | 1010.4 |
| 20260903223631 | 83 | 90 | 4.3 | 6.1 | 0.00 | 0.14 | 0.14 | 84 | 1010.4 |
| 20260903223531 | 83 | 83 | 4.3 | 6.1 | 0.00 | 0.14 | 0.14 | 85 | 1010.3 |
| 20260903223431 | 83 | 71 | 4.3 | 6.1 | 0.00 | 0.14 | 0.14 | 85 | 1010.4 |
| 20260903223330 | 83 | 102 | 5.2 | 6.1 | 0.00 | 0.14 | 0.14 | 84 | 1010.5 |
| 20260903223230 | 83 | 92 | 5.2 | 6.1 | 0.00 | 0.14 | 0.14 | 85 | 1010.4 |
| 20260903223131 | 83 | 96 | 5.2 | 6.1 | 0.00 | 0.14 | 0.14 | 85 | 1010.4 |
| 20260903223032 | 83 | 97 | 5.2 | 6.1 | 0.00 | 0.14 | 0.14 | 85 | 1010.4 |
| 20260903222931 | 83 | 109 | 3.5 | 5.2 | 0.00 | 0.14 | 0.14 | 85 | 1010.4 |
| 20260903222831 | 83 | 96 | 3.5 | 5.2 | 0.00 | 0.14 | 0.14 | 85 | 1010.4 |
| 20260903222732 | 82 | 86 | 3.5 | 5.2 | 0.00 | 0.14 | 0.14 | 85 | 1010.4 |
| 20260903222631 | 83 | 80 | 3.5 | 4.3 | 0.00 | 0.14 | 0.14 | 85 | 1010.4 |
| 20260903222530 | 82 | 65 | 3.5 | 3.5 | 0.00 | 0.14 | 0.14 | 85 | 1010.3 |
| 20260903222430 | 82 | 63 | 3.5 | 3.5 | 0.00 | 0.14 | 0.14 | 85 | 1010.3 |
| 20260903222332 | 82 | 62 | 3.5 | 3.5 | 0.00 | 0.14 | 0.14 | 85 | 1010.3 |
| 20260903222230 | 82 | 62 | 2.6 | 4.3 | 0.00 | 0.14 | 0.14 | 85 | 1010.5 |
| 20260903222130 | 82 | 61 | 1.7 | 4.3 | 0.00 | 0.14 | 0.14 | 85 | 1010.5 |
| 20260903222031 | 82 | 59 | 1.7 | 4.3 | 0.00 | 0.14 | 0.14 | 85 | 1010.4 |
| 20260903221931 | 82 | 59 | 1.7 | 4.3 | 0.00 | 0.14 | 0.14 | 85 | 1010.4 |
| 20260903221830 | 82 | 59 | 1.7 | 4.3 | 0.00 | 0.14 | 0.14 | 85 | 1010.5 |
| 20260903221730 | 82 | 59 | 2.6 | 4.3 | 0.00 | 0.14 | 0.14 | 85 | 1010.5 |
| 20260903221632 | 82 | 58 | 1.7 | 4.3 | 0.00 | 0.14 | 0.14 | 85 | 1010.5 |
| 20260903221531 | 82 | 54 | 1.7 | 4.3 | 0.00 | 0.14 | 0.14 | 85 | 1010.5 |
| 20260903221429 | 82 | 54 | 2.6 | 4.3 | 0.00 | 0.14 | 0.14 | 85 | 1010.5 |
| 20260903221329 | 82 | 54 | 2.6 | 4.3 | 0.00 | 0.14 | 0.14 | 85 | 1010.5 |
| 20260903221230 | 82 | 48 | 1.7 | 3.5 | 0.00 | 0.14 | 0.14 | 86 | 1010.5 |
| 20260903221130 | 82 | 45 | 1.7 | 3.5 | 0.00 | 0.14 | 0.14 | 85 | 1010.5 |
| 20260903221030 | 82 | 45 | 1.7 | 3.5 | 0.00 | 0.14 | 0.14 | 85 | 1010.5 |
| 20260903220931 | 82 | 45 | 1.7 | 3.5 | 0.00 | 0.14 | 0.14 | 85 | 1010.5 |
| 20260903220830 | 82 | 45 | 1.7 | 3.5 | 0.00 | 0.14 | 0.14 | 85 | 1010.5 |
| 20260903220729 | 82 | 45 | 1.7 | 3.5 | 0.00 | 0.14 | 0.14 | 85 | 1010.6 |
| 20260903220630 | 82 | 45 | 2.6 | 3.5 | 0.00 | 0.14 | 0.14 | 85 | 1010.6 |
| 20260903220529 | 82 | 45 | 1.7 | 3.5 | 0.00 | 0.14 | 0.14 | 85 | 1010.6 |
| 20260903220429 | 82 | 44 | 1.7 | 3.5 | 0.00 | 0.14 | 0.14 | 85 | 1010.7 |
| 20260903220329 | 82 | 44 | 1.7 | 3.5 | 0.00 | 0.14 | 0.14 | 85 | 1010.8 |
| 20260903220230 | 82 | 44 | 1.7 | 3.5 | 0.00 | 0.14 | 0.14 | 85 | 1010.8 |
| 20260903220130 | 82 | 44 | 2.6 | 3.5 | 0.00 | 0.14 | 0.14 | 85 | 1010.8 |
| 20260903220029 | 82 | 44 | 2.6 | 3.5 | 0.00 | 0.14 | 0.14 | 85 | 1010.7 |
| 20260903215931 | 82 | 76 | 2.6 | 3.5 | 0.00 | 0.14 | 0.14 | 85 | 1010.9 |
| 20260903215829 | 82 | 73 | 1.7 | 5.2 | 0.00 | 0.14 | 0.14 | 85 | 1010.8 |
| 20260903215729 | 82 | 56 | 1.7 | 5.2 | 0.00 | 0.14 | 0.14 | 85 | 1010.9 |
| 20260903215629 | 82 | 56 | 1.7 | 5.2 | 0.00 | 0.14 | 0.14 | 85 | 1010.8 |
| 20260903215531 | 82 | 56 | 1.7 | 5.2 | 0.00 | 0.14 | 0.14 | 85 | 1010.9 |
| 20260903215429 | 82 | 56 | 1.7 | 5.2 | 0.00 | 0.14 | 0.14 | 85 | 1010.9 |
| 20260903215329 | 82 | 56 | 1.7 | 6.1 | 0.00 | 0.14 | 0.14 | 85 | 1011.0 |
| 20260903215230 | 82 | 56 | 2.6 | 6.1 | 0.00 | 0.14 | 0.14 | 85 | 1011.1 |
| 20260903215130 | 82 | 56 | 2.6 | 6.1 | 0.00 | 0.14 | 0.14 | 85 | 1011.0 |
| 20260903215029 | 82 | 56 | 3.5 | 6.1 | 0.00 | 0.14 | 0.14 | 85 | 1011.1 |
| 20260903214929 | 82 | 56 | 3.5 | 6.1 | 0.00 | 0.14 | 0.14 | 85 | 1011.0 |
| 20260903214831 | 82 | 62 | 3.5 | 6.1 | 0.00 | 0.14 | 0.14 | 85 | 1011.1 |
| 20260903214729 | 82 | 59 | 3.5 | 6.1 | 0.00 | 0.14 | 0.14 | 85 | 1011.1 |
| 20260903214629 | 82 | 62 | 3.5 | 6.1 | 0.00 | 0.14 | 0.14 | 85 | 1011.0 |
| 20260903214530 | 82 | 63 | 4.3 | 6.1 | 0.00 | 0.14 | 0.14 | 85 | 1011.1 |
| 20260903214429 | 82 | 48 | 3.5 | 6.1 | 0.00 | 0.14 | 0.14 | 85 | 1011.1 |
| 20260903214328 | 82 | 47 | 3.5 | 5.2 | 0.00 | 0.14 | 0.14 | 85 | 1011.1 |
| 20260903214229 | 82 | 37 | 2.6 | 6.1 | 0.00 | 0.14 | 0.14 | 85 | 1011.1 |
| 20260903214130 | 82 | 54 | 2.6 | 6.1 | 0.00 | 0.14 | 0.14 | 85 | 1011.1 |
| 20260903214031 | 82 | 48 | 4.3 | 6.1 | 0.00 | 0.14 | 0.14 | 85 | 1011.2 |
| 20260903213930 | 82 | 48 | 4.3 | 6.1 | 0.00 | 0.14 | 0.14 | 85 | 1011.1 |
| 20260903213832 | 82 | 62 | 4.3 | 6.1 | 0.00 | 0.14 | 0.14 | 85 | 1011.2 |
| 20260903213729 | 82 | 35 | 3.5 | 6.1 | 0.00 | 0.14 | 0.14 | 85 | 1011.1 |
| 20260903213630 | 82 | 39 | 3.5 | 6.1 | 0.00 | 0.14 | 0.14 | 85 | 1011.2 |
| 20260903213529 | 82 | 34 | 3.5 | 6.1 | 0.00 | 0.14 | 0.14 | 85 | 1011.1 |
| 20260903213430 | 82 | 47 | 4.3 | 6.1 | 0.00 | 0.14 | 0.14 | 85 | 1011.1 |
| 20260903213329 | 82 | 34 | 4.3 | 6.1 | 0.00 | 0.14 | 0.14 | 85 | 1011.1 |
| 20260903213229 | 82 | 44 | 4.3 | 7.8 | 0.00 | 0.14 | 0.14 | 85 | 1011.1 |
| 20260903213131 | 82 | 51 | 3.5 | 7.8 | 0.00 | 0.14 | 0.14 | 85 | 1011.2 |
| 20260903213030 | 82 | 38 | 3.5 | 7.8 | 0.00 | 0.14 | 0.14 | 85 | 1011.2 |
| 20260903212929 | 81 | 23 | 3.5 | 7.8 | 0.00 | 0.14 | 0.14 | 85 | 1011.2 |
| 20260903212831 | 82 | 41 | 4.3 | 7.8 | 0.00 | 0.14 | 0.14 | 86 | 1011.2 |
| 20260903212730 | 81 | 45 | 4.3 | 7.8 | 0.00 | 0.14 | 0.14 | 86 | 1011.3 |
| 20260903212628 | 81 | 56 | 3.5 | 7.8 | 0.00 | 0.14 | 0.14 | 86 | 1011.3 |
| 20260903212530 | 81 | 97 | 3.5 | 7.8 | 0.00 | 0.14 | 0.14 | 86 | 1011.4 |
| 20260903212429 | 81 | 61 | 4.3 | 8.7 | 0.00 | 0.14 | 0.14 | 86 | 1011.3 |
| 20260903212329 | 81 | 63 | 4.3 | 8.7 | 0.00 | 0.14 | 0.14 | 86 | 1011.4 |
| 20260903212229 | 81 | 61 | 3.5 | 8.7 | 0.00 | 0.14 | 0.14 | 86 | 1011.3 |
| 20260903212129 | 81 | 59 | 4.3 | 8.7 | 0.00 | 0.14 | 0.14 | 86 | 1011.4 |
| 20260903212030 | 81 | 75 | 4.3 | 8.7 | 0.00 | 0.14 | 0.14 | 87 | 1011.4 |
| 20260903211929 | 81 | 61 | 3.5 | 8.7 | 0.00 | 0.14 | 0.14 | 87 | 1011.4 |
| 20260903211829 | 81 | 48 | 5.2 | 8.7 | 0.00 | 0.14 | 0.14 | 87 | 1011.4 |
| 20260903211729 | 81 | 45 | 5.2 | 8.7 | 0.00 | 0.14 | 0.14 | 87 | 1011.4 |
| 20260903211628 | 81 | 37 | 5.2 | 10.4 | 0.00 | 0.14 | 0.14 | 87 | 1011.4 |
| 20260903211528 | 81 | 39 | 4.3 | 10.4 | 0.00 | 0.14 | 0.14 | 87 | 1011.4 |
| 20260903211430 | 81 | 44 | 4.3 | 10.4 | 0.00 | 0.14 | 0.14 | 88 | 1011.4 |
| 20260903211328 | 81 | 61 | 5.2 | 10.4 | 0.00 | 0.14 | 0.14 | 88 | 1011.4 |
| 20260903211228 | 81 | 47 | 4.3 | 10.4 | 0.00 | 0.14 | 0.14 | 88 | 1011.5 |
| 20260903211128 | 81 | 62 | 2.6 | 10.4 | 0.00 | 0.14 | 0.14 | 88 | 1011.4 |
| 20260903211030 | 81 | 56 | 3.5 | 10.4 | 0.00 | 0.14 | 0.14 | 88 | 1011.5 |
| 20260903210930 | 80 | 45 | 5.2 | 10.4 | 0.00 | 0.14 | 0.14 | 89 | 1011.5 |
| 20260903210829 | 80 | 59 | 6.1 | 10.4 | 0.00 | 0.14 | 0.14 | 89 | 1011.6 |
| 20260903210728 | 80 | 32 | 7.0 | 10.4 | 0.00 | 0.14 | 0.14 | 89 | 1011.6 |
| 20260903210629 | 80 | 32 | 7.8 | 10.4 | 0.00 | 0.14 | 0.14 | 89 | 1011.7 |
| 20260903210530 | 81 | 37 | 7.8 | 10.4 | 0.00 | 0.14 | 0.14 | 89 | 1011.6 |
| 20260903210428 | 81 | 27 | 6.1 | 12.2 | 0.00 | 0.14 | 0.14 | 90 | 1011.7 |
| 20260903210331 | 81 | 51 | 5.2 | 12.2 | 0.00 | 0.14 | 0.14 | 90 | 1011.7 |
| 20260903210228 | 81 | 20 | 5.2 | 12.2 | 0.00 | 0.14 | 0.14 | 90 | 1011.8 |
| 20260903210128 | 81 | 32 | 6.1 | 12.2 | 0.00 | 0.14 | 0.14 | 89 | 1011.7 |
| 20260903210031 | 81 | 25 | 7.0 | 12.2 | 0.00 | 0.14 | 0.14 | 89 | 1011.8 |
| 20260903205929 | 81 | 62 | 6.1 | 12.2 | 0.00 | 0.14 | 0.14 | 89 | 1011.7 |
| 20260903205829 | 81 | 42 | 6.1 | 12.2 | 0.00 | 0.14 | 0.14 | 89 | 1011.7 |
| 20260903205730 | 81 | 27 | 6.1 | 12.2 | 0.00 | 0.14 | 0.14 | 89 | 1011.7 |
| 20260903205630 | 81 | 27 | 7.0 | 12.2 | 0.00 | 0.14 | 0.14 | 89 | 1011.8 |
| 20260903205528 | 81 | 41 | 6.1 | 12.2 | 0.00 | 0.14 | 0.14 | 89 | 1011.8 |
| 20260903205429 | 81 | 16 | 5.2 | 8.7 | 0.00 | 0.14 | 0.14 | 89 | 1011.7 |
| 20260903205331 | 81 | 49 | 4.3 | 8.7 | 0.00 | 0.14 | 0.14 | 89 | 1011.6 |
| 20260903205229 | 81 | 6 | 3.5 | 7.8 | 0.00 | 0.14 | 0.14 | 89 | 1011.6 |
| 20260903205129 | 81 | 14 | 3.5 | 7.8 | 0.00 | 0.14 | 0.14 | 89 | 1011.6 |
| 20260903205030 | 81 | 0 | 4.3 | 7.8 | 0.00 | 0.14 | 0.14 | 89 | 1011.6 |
| 20260903204930 | 81 | 0 | 4.3 | 7.8 | 0.00 | 0.14 | 0.14 | 89 | 1011.6 |
| 20260903204827 | 81 | 3 | 4.3 | 6.1 | 0.00 | 0.14 | 0.14 | 89 | 1011.6 |
| 20260903204727 | 81 | 0 | 4.3 | 6.1 | 0.00 | 0.14 | 0.14 | 89 | 1011.6 |
| 20260903204629 | 81 | 23 | 4.3 | 6.1 | 0.00 | 0.14 | 0.14 | 89 | 1011.7 |
| 20260903204529 | 81 | 1 | 3.5 | 6.1 | 0.00 | 0.14 | 0.14 | 89 | 1011.7 |
| 20260903204427 | 81 | 20 | 4.3 | 6.1 | 0.00 | 0.14 | 0.14 | 89 | 1011.7 |
| 20260903204327 | 81 | 0 | 4.3 | 6.1 | 0.00 | 0.14 | 0.14 | 89 | 1011.8 |
| 20260903204227 | 81 | 0 | 3.5 | 6.1 | 0.00 | 0.14 | 0.14 | 89 | 1011.9 |
| 20260903204127 | 81 | 21 | 3.5 | 6.1 | 0.00 | 0.14 | 0.14 | 89 | 1011.9 |
| 20260903204028 | 81 | 23 | 3.5 | 6.1 | 0.00 | 0.14 | 0.14 | 89 | 1011.9 |
| 20260903203928 | 81 | 18 | 4.3 | 6.1 | 0.00 | 0.14 | 0.14 | 88 | 1011.8 |
| 20260903203828 | 81 | 0 | 4.3 | 6.1 | 0.00 | 0.14 | 0.14 | 88 | 1011.8 |
| 20260903203729 | 81 | 4 | 5.2 | 7.8 | 0.00 | 0.14 | 0.14 | 88 | 1011.8 |
| 20260903203627 | 81 | 355 | 5.2 | 7.8 | 0.00 | 0.14 | 0.14 | 88 | 1011.9 |
| 20260903203527 | 81 | 0 | 5.2 | 7.8 | 0.00 | 0.14 | 0.14 | 88 | 1011.9 |
| 20260903203427 | 81 | 10 | 4.3 | 7.8 | 0.00 | 0.14 | 0.14 | 88 | 1011.8 |
| 20260903203327 | 81 | 25 | 5.2 | 7.8 | 0.00 | 0.14 | 0.14 | 88 | 1011.8 |
| 20260903203229 | 81 | 358 | 5.2 | 7.8 | 0.00 | 0.14 | 0.14 | 88 | 1011.8 |
| 20260903203127 | 81 | 25 | 4.3 | 7.8 | 0.00 | 0.14 | 0.14 | 88 | 1011.7 |
| 20260903203027 | 81 | 6 | 4.3 | 7.8 | 0.00 | 0.14 | 0.14 | 88 | 1011.7 |
| 20260903202930 | 81 | 0 | 4.3 | 7.8 | 0.00 | 0.14 | 0.14 | 88 | 1011.6 |
| 20260903202829 | 81 | 0 | 5.2 | 7.8 | 0.00 | 0.14 | 0.14 | 88 | 1011.7 |
| 20260903202728 | 81 | 4 | 5.2 | 7.8 | 0.00 | 0.14 | 0.14 | 88 | 1011.6 |
| 20260903202627 | 81 | 16 | 5.2 | 7.8 | 0.00 | 0.14 | 0.14 | 88 | 1011.6 |
| 20260903202528 | 81 | 1 | 4.3 | 7.8 | 0.00 | 0.14 | 0.14 | 88 | 1011.5 |
| 20260903202427 | 81 | 355 | 4.3 | 7.8 | 0.00 | 0.14 | 0.14 | 87 | 1011.5 |
| 20260903202327 | 81 | 1 | 5.2 | 7.8 | 0.00 | 0.14 | 0.14 | 87 | 1011.5 |
| 20260903202229 | 81 | 0 | 4.3 | 6.1 | 0.00 | 0.14 | 0.14 | 87 | 1011.5 |
| 20260903202129 | 81 | 0 | 3.5 | 6.1 | 0.00 | 0.14 | 0.14 | 87 | 1011.5 |
| 20260903202027 | 81 | 0 | 2.6 | 6.1 | 0.00 | 0.14 | 0.14 | 87 | 1011.5 |
| 20260903201927 | 81 | 0 | 2.6 | 6.1 | 0.00 | 0.14 | 0.14 | 87 | 1011.6 |
| 20260903201829 | 81 | 0 | 3.5 | 6.1 | 0.00 | 0.14 | 0.14 | 87 | 1011.5 |
| 20260903201727 | 81 | 3 | 3.5 | 6.1 | 0.00 | 0.14 | 0.14 | 87 | 1011.6 |
| 20260903201627 | 81 | 0 | 4.3 | 6.1 | 0.00 | 0.14 | 0.14 | 87 | 1011.5 |
| 20260903201528 | 81 | 24 | 4.3 | 6.1 | 0.00 | 0.14 | 0.14 | 87 | 1011.6 |
| 20260903201426 | 81 | 4 | 3.5 | 6.1 | 0.00 | 0.14 | 0.14 | 87 | 1011.6 |
| 20260903201326 | 81 | 0 | 2.6 | 6.1 | 0.00 | 0.14 | 0.14 | 87 | 1011.6 |
| 20260903201227 | 81 | 0 | 3.5 | 6.1 | 0.00 | 0.14 | 0.14 | 86 | 1011.6 |
| 20260903201129 | 81 | 0 | 3.5 | 6.1 | 0.00 | 0.14 | 0.14 | 86 | 1011.6 |
| 20260903201027 | 81 | 10 | 3.5 | 6.1 | 0.00 | 0.14 | 0.14 | 86 | 1011.6 |
| 20260903200927 | 81 | 17 | 4.3 | 6.1 | 0.00 | 0.14 | 0.14 | 86 | 1011.6 |
| 20260903200827 | 81 | 1 | 4.3 | 6.1 | 0.00 | 0.14 | 0.14 | 86 | 1011.7 |
| 20260903200727 | 81 | 24 | 4.3 | 6.1 | 0.00 | 0.14 | 0.14 | 85 | 1011.7 |
| 20260903200625 | 81 | 30 | 5.2 | 6.1 | 0.00 | 0.14 | 0.14 | 85 | 1011.7 |
| 20260903200523 | 81 | 3 | 4.3 | 6.1 | 0.00 | 0.14 | 0.14 | 85 | 1011.8 |
| 20260903200423 | 81 | 21 | 3.5 | 6.1 | 0.00 | 0.14 | 0.14 | 84 | 1011.7 |
| 20260903200318 | 81 | 18 | 3.5 | 6.1 | 0.00 | 0.14 | 0.14 | 84 | 1011.8 |
| 20260903200215 | 81 | 13 | 3.5 | 6.1 | 0.00 | 0.14 | 0.14 | 84 | 1011.7 |
| 20260903200113 | 81 | 8 | 3.5 | 6.1 | 0.00 | 0.14 | 0.14 | 84 | 1011.8 |
| 20260903200014 | 81 | 10 | 3.5 | 6.1 | 0.00 | 0.14 | 0.14 | 83 | 1011.5 |
| 20260903195916 | 81 | 0 | 3.5 | 6.1 | 0.00 | 0.14 | 0.14 | 83 | 1011.6 |
| 20260903195812 | 81 | 0 | 2.6 | 6.1 | 0.00 | 0.14 | 0.14 | 83 | 1011.6 |
| 20260903195712 | 81 | 327 | 3.5 | 7.8 | 0.00 | 0.14 | 0.14 | 82 | 1011.4 |
| 20260903195610 | 81 | 354 | 3.5 | 7.8 | 0.00 | 0.14 | 0.14 | 82 | 1011.5 |
| 20260903195508 | 81 | 333 | 2.6 | 7.8 | 0.00 | 0.14 | 0.14 | 82 | 1011.5 |
| 20260903195407 | 80 | 329 | 3.5 | 7.8 | 0.00 | 0.14 | 0.14 | 82 | 1011.6 |
| 20260903195306 | 80 | 336 | 3.5 | 7.8 | 0.00 | 0.14 | 0.14 | 83 | 1011.5 |
| 20260903195204 | 80 | 353 | 3.5 | 7.8 | 0.00 | 0.14 | 0.14 | 83 | 1011.6 |
| 20260903195103 | 80 | 357 | 4.3 | 7.8 | 0.00 | 0.14 | 0.14 | 83 | 1011.5 |
| 20260903195002 | 80 | 0 | 4.3 | 7.8 | 0.00 | 0.14 | 0.14 | 83 | 1011.6 |
| 20260903194903 | 80 | 350 | 5.2 | 7.8 | 0.00 | 0.14 | 0.14 | 83 | 1011.6 |
| 20260903194804 | 80 | 324 | 5.2 | 7.8 | 0.00 | 0.14 | 0.14 | 83 | 1011.6 |
| 20260903194703 | 80 | 345 | 4.3 | 7.8 | 0.00 | 0.14 | 0.14 | 84 | 1011.6 |
| 20260903194603 | 80 | 333 | 3.5 | 6.1 | 0.00 | 0.14 | 0.14 | 84 | 1011.7 |
| 20260903194504 | 80 | 341 | 2.6 | 6.1 | 0.00 | 0.14 | 0.14 | 84 | 1011.7 |
| 20260903194403 | 80 | 327 | 3.5 | 6.1 | 0.00 | 0.14 | 0.14 | 84 | 1011.7 |
| 20260903194301 | 80 | 1 | 4.3 | 7.8 | 0.00 | 0.14 | 0.14 | 84 | 1011.8 |
| 20260903194202 | 80 | 341 | 4.3 | 7.8 | 0.00 | 0.14 | 0.14 | 84 | 1011.7 |
| 20260903194103 | 80 | 350 | 3.5 | 7.8 | 0.00 | 0.14 | 0.14 | 84 | 1011.7 |
| 20260903194004 | 80 | 340 | 4.3 | 7.8 | 0.00 | 0.14 | 0.14 | 84 | 1011.7 |
| 20260903193903 | 80 | 340 | 4.3 | 7.8 | 0.00 | 0.14 | 0.14 | 84 | 1011.7 |
| 20260903193804 | 80 | 340 | 4.3 | 7.8 | 0.00 | 0.14 | 0.14 | 84 | 1011.8 |
| 20260903193704 | 80 | 340 | 4.3 | 7.8 | 0.00 | 0.14 | 0.14 | 84 | 1011.8 |
| 20260903193556 | 80 | 333 | 4.3 | 7.8 | 0.00 | 0.14 | 0.14 | 84 | 1011.8 |
| 20260903193455 | 80 | 357 | 4.3 | 7.8 | 0.00 | 0.14 | 0.14 | 84 | 1011.9 |
| 20260903193353 | 80 | 350 | 3.5 | 7.8 | 0.00 | 0.14 | 0.14 | 84 | 1011.9 |
| 20260903193251 | 80 | 0 | 3.5 | 5.2 | 0.00 | 0.14 | 0.14 | 84 | 1011.9 |
| 20260903193149 | 80 | 330 | 3.5 | 5.2 | 0.00 | 0.14 | 0.14 | 84 | 1011.9 |
| 20260903193048 | 80 | 0 | 4.3 | 5.2 | 0.00 | 0.14 | 0.14 | 84 | 1012.0 |
| 20260903192942 | 80 | 334 | 4.3 | 5.2 | 0.00 | 0.14 | 0.14 | 84 | 1012.0 |
| 20260903192841 | 80 | 348 | 4.3 | 5.2 | 0.00 | 0.14 | 0.14 | 84 | 1011.8 |
| 20260903192739 | 80 | 296 | 3.5 | 5.2 | 0.00 | 0.14 | 0.14 | 84 | 1011.9 |
| 20260903192638 | 80 | 306 | 3.5 | 5.2 | 0.00 | 0.14 | 0.14 | 84 | 1011.9 |
| 20260903192538 | 81 | 303 | 3.5 | 5.2 | 0.00 | 0.14 | 0.14 | 84 | 1011.9 |
| 20260903192435 | 80 | 300 | 3.5 | 5.2 | 0.00 | 0.14 | 0.14 | 84 | 1011.8 |
| 20260903192335 | 81 | 305 | 3.5 | 6.1 | 0.00 | 0.14 | 0.14 | 84 | 1011.9 |
| 20260903192231 | 80 | 329 | 4.3 | 6.1 | 0.00 | 0.14 | 0.14 | 84 | 1011.8 |
| 20260903192132 | 80 | 327 | 3.5 | 6.1 | 0.00 | 0.14 | 0.14 | 84 | 1011.8 |
| 20260903192030 | 80 | 323 | 3.5 | 6.1 | 0.00 | 0.14 | 0.14 | 84 | 1011.8 |
| 20260903191932 | 80 | 312 | 2.6 | 6.1 | 0.00 | 0.14 | 0.14 | 84 | 1011.8 |
| 20260903191831 | 80 | 336 | 2.6 | 6.1 | 0.00 | 0.14 | 0.14 | 84 | 1011.8 |
| 20260903191731 | 80 | 329 | 3.5 | 6.1 | 0.00 | 0.14 | 0.14 | 84 | 1011.7 |
| 20260903191631 | 80 | 329 | 3.5 | 6.1 | 0.00 | 0.14 | 0.14 | 84 | 1011.7 |
| 20260903191532 | 80 | 310 | 3.5 | 6.1 | 0.00 | 0.14 | 0.14 | 84 | 1011.8 |
| 20260903191431 | 80 | 341 | 3.5 | 7.8 | 0.00 | 0.14 | 0.14 | 84 | 1011.7 |
| 20260903191331 | 80 | 333 | 3.5 | 7.8 | 0.00 | 0.14 | 0.14 | 85 | 1011.7 |
| 20260903191231 | 80 | 331 | 4.3 | 8.7 | 0.00 | 0.14 | 0.14 | 85 | 1011.7 |
| 20260903191130 | 80 | 333 | 4.3 | 8.7 | 0.00 | 0.14 | 0.14 | 85 | 1011.8 |
| 20260903191028 | 80 | 4 | 3.5 | 8.7 | 0.00 | 0.14 | 0.14 | 86 | 1011.7 |
| 20260903190928 | 80 | 0 | 3.5 | 8.7 | 0.00 | 0.14 | 0.14 | 86 | 1011.7 |
| 20260903190825 | 80 | 0 | 3.5 | 8.7 | 0.00 | 0.14 | 0.14 | 86 | 1011.7 |
| 20260903190725 | 80 | 0 | 4.3 | 8.7 | 0.00 | 0.14 | 0.14 | 86 | 1011.8 |
| 20260903190626 | 80 | 333 | 5.2 | 8.7 | 0.00 | 0.14 | 0.14 | 87 | 1011.8 |
| 20260903190527 | 80 | 345 | 5.2 | 8.7 | 0.00 | 0.14 | 0.14 | 87 | 1011.8 |
| 20260903190425 | 80 | 327 | 4.3 | 8.7 | 0.00 | 0.14 | 0.14 | 87 | 1011.8 |
| 20260903190325 | 80 | 0 | 4.3 | 8.7 | 0.00 | 0.14 | 0.14 | 87 | 1011.8 |
| 20260903190227 | 80 | 0 | 4.3 | 8.7 | 0.00 | 0.14 | 0.14 | 87 | 1011.8 |
| 20260903190126 | 80 | 3 | 5.2 | 8.7 | 0.00 | 0.14 | 0.14 | 87 | 1011.9 |
| 20260903190026 | 80 | 354 | 4.3 | 8.7 | 0.00 | 0.14 | 0.14 | 87 | 1011.9 |
| 20260903185925 | 80 | 0 | 5.2 | 8.7 | 0.00 | 0.14 | 0.14 | 87 | 1011.9 |
| 20260903185827 | 80 | 355 | 5.2 | 8.7 | 0.00 | 0.14 | 0.14 | 87 | 1012.0 |
| 20260903185726 | 81 | 11 | 5.2 | 8.7 | 0.00 | 0.14 | 0.14 | 87 | 1011.9 |
| 20260903185625 | 81 | 4 | 5.2 | 8.7 | 0.00 | 0.14 | 0.14 | 86 | 1011.9 |
| 20260903185527 | 81 | 31 | 5.2 | 8.7 | 0.00 | 0.14 | 0.14 | 86 | 1011.9 |
| 20260903185425 | 81 | 16 | 4.3 | 8.7 | 0.00 | 0.14 | 0.14 | 86 | 1011.9 |
| 20260903185326 | 81 | 18 | 5.2 | 8.7 | 0.00 | 0.14 | 0.14 | 86 | 1012.0 |
| 20260903185226 | 81 | 11 | 6.1 | 8.7 | 0.00 | 0.14 | 0.14 | 86 | 1012.0 |
| 20260903185126 | 81 | 16 | 5.2 | 7.8 | 0.00 | 0.14 | 0.14 | 86 | 1012.0 |
| 20260903185025 | 81 | 4 | 3.5 | 7.8 | 0.00 | 0.14 | 0.14 | 85 | 1012.0 |
| 20260903184925 | 81 | 348 | 3.5 | 7.8 | 0.00 | 0.14 | 0.14 | 85 | 1012.1 |
| 20260903184827 | 81 | 334 | 3.5 | 7.8 | 0.00 | 0.14 | 0.14 | 85 | 1012.1 |
| 20260903184725 | 81 | 358 | 3.5 | 6.1 | 0.00 | 0.14 | 0.14 | 85 | 1012.1 |
| 20260903184625 | 81 | 338 | 3.5 | 6.1 | 0.00 | 0.14 | 0.14 | 84 | 1012.2 |
| 20260903184526 | 81 | 355 | 3.5 | 8.7 | 0.00 | 0.14 | 0.14 | 84 | 1012.1 |
| 20260903184425 | 81 | 0 | 3.5 | 8.7 | 0.00 | 0.14 | 0.14 | 84 | 1012.1 |
| 20260903184325 | 81 | 350 | 3.5 | 8.7 | 0.00 | 0.14 | 0.14 | 84 | 1012.2 |
| 20260903184225 | 81 | 0 | 3.5 | 8.7 | 0.00 | 0.14 | 0.14 | 84 | 1012.2 |
| 20260903184126 | 81 | 331 | 2.6 | 8.7 | 0.00 | 0.14 | 0.14 | 84 | 1012.3 |
| 20260903184026 | 81 | 336 | 3.5 | 8.7 | 0.00 | 0.14 | 0.14 | 84 | 1012.3 |
| 20260903183925 | 81 | 348 | 4.3 | 8.7 | 0.00 | 0.14 | 0.14 | 83 | 1012.4 |
| 20260903183826 | 81 | 305 | 5.2 | 8.7 | 0.00 | 0.14 | 0.14 | 83 | 1012.4 |
| 20260903183725 | 81 | 276 | 6.1 | 8.7 | 0.00 | 0.14 | 0.14 | 83 | 1012.4 |
| 20260903183625 | 81 | 307 | 5.2 | 8.7 | 0.00 | 0.14 | 0.14 | 84 | 1012.4 |
| 20260903183524 | 81 | 292 | 4.3 | 8.7 | 0.00 | 0.14 | 0.14 | 84 | 1012.5 |
| 20260903183426 | 81 | 302 | 4.3 | 8.7 | 0.00 | 0.14 | 0.14 | 84 | 1012.6 |
| 20260903183325 | 81 | 293 | 5.2 | 8.7 | 0.00 | 0.14 | 0.14 | 84 | 1012.5 |
| 20260903183225 | 81 | 300 | 5.2 | 9.6 | 0.00 | 0.14 | 0.14 | 84 | 1012.6 |
| 20260903183125 | 81 | 289 | 5.2 | 9.6 | 0.00 | 0.14 | 0.14 | 84 | 1012.6 |
| 20260903183026 | 81 | 302 | 4.3 | 9.6 | 0.00 | 0.14 | 0.14 | 85 | 1012.5 |
| 20260903182924 | 81 | 296 | 5.2 | 9.6 | 0.00 | 0.14 | 0.14 | 85 | 1012.5 |
| 20260903182824 | 81 | 309 | 5.2 | 9.6 | 0.00 | 0.14 | 0.14 | 85 | 1012.5 |
| 20260903182725 | 81 | 279 | 5.2 | 9.6 | 0.00 | 0.14 | 0.14 | 85 | 1012.4 |
| 20260903182625 | 81 | 288 | 4.3 | 9.6 | 0.00 | 0.14 | 0.14 | 85 | 1012.4 |
| 20260903182524 | 81 | 299 | 3.5 | 9.6 | 0.00 | 0.14 | 0.14 | 84 | 1012.4 |
| 20260903182426 | 81 | 288 | 5.2 | 9.6 | 0.00 | 0.14 | 0.14 | 84 | 1012.4 |
| 20260903182325 | 81 | 295 | 5.2 | 9.6 | 0.00 | 0.14 | 0.14 | 84 | 1012.3 |
| 20260903182224 | 81 | 278 | 4.3 | 9.6 | 0.00 | 0.14 | 0.14 | 84 | 1012.2 |
| 20260903182125 | 81 | 305 | 4.3 | 9.6 | 0.00 | 0.14 | 0.14 | 84 | 1012.1 |
| 20260903182026 | 81 | 283 | 5.2 | 9.6 | 0.00 | 0.14 | 0.14 | 84 | 1012.1 |
| 20260903181925 | 81 | 300 | 5.2 | 9.6 | 0.00 | 0.14 | 0.14 | 83 | 1012.0 |
| 20260903181825 | 81 | 292 | 5.2 | 9.6 | 0.00 | 0.14 | 0.14 | 84 | 1012.0 |
| 20260903181726 | 81 | 299 | 6.1 | 9.6 | 0.00 | 0.14 | 0.14 | 84 | 1012.1 |
| 20260903181624 | 81 | 302 | 6.1 | 9.6 | 0.00 | 0.14 | 0.14 | 84 | 1012.0 |
| 20260903181524 | 82 | 290 | 7.0 | 9.6 | 0.00 | 0.14 | 0.14 | 84 | 1012.0 |
| 20260903181424 | 81 | 290 | 7.0 | 9.6 | 0.00 | 0.14 | 0.14 | 84 | 1012.1 |
| 20260903181325 | 82 | 272 | 5.2 | 9.6 | 0.00 | 0.14 | 0.14 | 84 | 1012.1 |
| 20260903181225 | 82 | 298 | 5.2 | 9.6 | 0.00 | 0.14 | 0.14 | 84 | 1012.2 |
| 20260903181125 | 81 | 327 | 5.2 | 11.3 | 0.00 | 0.14 | 0.14 | 84 | 1012.2 |
| 20260903181026 | 81 | 295 | 5.2 | 13.0 | 0.00 | 0.14 | 0.14 | 83 | 1012.2 |
| 20260903180924 | 81 | 300 | 4.3 | 13.0 | 0.00 | 0.14 | 0.14 | 83 | 1012.3 |
| 20260903180825 | 82 | 299 | 4.3 | 13.0 | 0.00 | 0.14 | 0.14 | 83 | 1012.3 |
| 20260903180725 | 82 | 320 | 5.2 | 13.0 | 0.00 | 0.14 | 0.14 | 83 | 1012.4 |
| 20260903180624 | 82 | 303 | 6.1 | 13.0 | 0.00 | 0.14 | 0.14 | 82 | 1012.3 |
| 20260903180524 | 82 | 289 | 7.0 | 13.0 | 0.00 | 0.14 | 0.14 | 82 | 1012.4 |
| 20260903180424 | 82 | 300 | 7.0 | 13.0 | 0.00 | 0.14 | 0.14 | 81 | 1012.4 |
| 20260903180325 | 82 | 310 | 7.8 | 13.0 | 0.00 | 0.14 | 0.14 | 81 | 1012.6 |
| 20260903180225 | 82 | 0 | 9.6 | 13.0 | 0.00 | 0.14 | 0.14 | 81 | 1012.6 |
| 20260903180124 | 83 | 152 | 7.8 | 13.0 | 0.00 | 0.14 | 0.14 | 82 | 1012.6 |
| 20260903180025 | 83 | 149 | 5.2 | 7.8 | 0.00 | 0.14 | 0.14 | 83 | 1012.6 |
| 20260903175925 | 83 | 0 | 4.3 | 7.8 | 0.00 | 0.14 | 0.14 | 83 | 1012.6 |
| 20260903175825 | 83 | 0 | 5.2 | 7.8 | 0.00 | 0.14 | 0.14 | 83 | 1012.6 |
| 20260903175723 | 83 | 0 | 5.2 | 8.7 | 0.00 | 0.14 | 0.14 | 83 | 1012.6 |
| 20260903175625 | 83 | 0 | 4.3 | 8.7 | 0.00 | 0.14 | 0.14 | 83 | 1012.6 |
| 20260903175524 | 83 | 161 | 3.5 | 8.7 | 0.00 | 0.14 | 0.14 | 83 | 1012.5 |
| 20260903175424 | 83 | 0 | 3.5 | 8.7 | 0.00 | 0.14 | 0.14 | 83 | 1012.5 |
| 20260903175325 | 83 | 0 | 2.6 | 9.6 | 0.00 | 0.14 | 0.14 | 84 | 1012.4 |
| 20260903175223 | 83 | 0 | 2.6 | 9.6 | 0.00 | 0.14 | 0.14 | 84 | 1012.4 |
| 20260903175124 | 84 | 0 | 4.3 | 9.6 | 0.00 | 0.14 | 0.14 | 84 | 1012.5 |
| 20260903175023 | 84 | 0 | 5.2 | 9.6 | 0.00 | 0.14 | 0.14 | 83 | 1012.5 |
| 20260903174926 | 84 | 353 | 5.2 | 9.6 | 0.00 | 0.14 | 0.14 | 84 | 1012.5 |
| 20260903174823 | 85 | 316 | 5.2 | 11.3 | 0.00 | 0.14 | 0.14 | 84 | 1012.5 |
| 20260903174724 | 85 | 334 | 4.3 | 11.3 | 0.00 | 0.14 | 0.14 | 85 | 1012.6 |
| 20260903174623 | 85 | 336 | 4.3 | 11.3 | 0.00 | 0.14 | 0.14 | 85 | 1012.6 |
| 20260903174524 | 85 | 357 | 5.2 | 11.3 | 0.00 | 0.14 | 0.14 | 85 | 1012.6 |
| 20260903174424 | 85 | 0 | 6.1 | 11.3 | 0.00 | 0.14 | 0.14 | 84 | 1012.7 |
| 20260903174324 | 86 | 348 | 5.2 | 11.3 | 0.00 | 0.14 | 0.14 | 84 | 1012.7 |
| 20260903174225 | 86 | 344 | 4.3 | 11.3 | 0.00 | 0.14 | 0.14 | 84 | 1012.7 |
| 20260903174124 | 86 | 347 | 4.3 | 11.3 | 0.00 | 0.14 | 0.14 | 83 | 1012.7 |
| 20260903174023 | 86 | 343 | 6.1 | 11.3 | 0.00 | 0.14 | 0.14 | 83 | 1012.8 |
| 20260903173924 | 87 | 0 | 6.1 | 11.3 | 0.00 | 0.14 | 0.14 | 82 | 1012.9 |
| 20260903173825 | 87 | 314 | 5.2 | 11.3 | 0.00 | 0.14 | 0.14 | 82 | 1012.9 |
| 20260903173723 | 88 | 329 | 4.3 | 7.8 | 0.00 | 0.14 | 0.14 | 82 | 1012.8 |
| 20260903173623 | 88 | 341 | 4.3 | 7.8 | 0.00 | 0.14 | 0.14 | 82 | 1012.9 |
| 20260903173525 | 88 | 341 | 4.3 | 7.8 | 0.00 | 0.14 | 0.14 | 81 | 1012.9 |
| 20260903173424 | 88 | 0 | 4.3 | 7.8 | 0.00 | 0.14 | 0.14 | 81 | 1012.9 |
| 20260903173323 | 88 | 0 | 5.2 | 7.8 | 0.00 | 0.14 | 0.14 | 80 | 1012.9 |
| 20260903173225 | 88 | 0 | 5.2 | 7.8 | 0.00 | 0.14 | 0.14 | 79 | 1012.8 |
| 20260903173124 | 88 | 13 | 4.3 | 6.1 | 0.00 | 0.14 | 0.14 | 79 | 1012.8 |
| 20260903173023 | 88 | 20 | 2.6 | 4.3 | 0.00 | 0.14 | 0.14 | 78 | 1012.8 |
| 20260903172923 | 88 | 42 | 2.6 | 4.3 | 0.00 | 0.14 | 0.14 | 78 | 1012.8 |
| 20260903172825 | 88 | 59 | 3.5 | 4.3 | 0.00 | 0.14 | 0.14 | 78 | 1012.8 |
| 20260903172724 | 89 | 31 | 3.5 | 5.2 | 0.00 | 0.14 | 0.14 | 78 | 1012.7 |
| 20260903172623 | 89 | 31 | 3.5 | 5.2 | 0.00 | 0.14 | 0.14 | 78 | 1012.7 |
| 20260903172524 | 89 | 20 | 1.7 | 5.2 | 0.00 | 0.14 | 0.14 | 78 | 1012.6 |
| 20260903172424 | 89 | 31 | 1.7 | 5.2 | 0.00 | 0.14 | 0.14 | 76 | 1012.7 |
| 20260903172323 | 89 | 31 | 0.9 | 6.1 | 0.00 | 0.14 | 0.14 | 76 | 1012.7 |
| 20260903172224 | 89 | 31 | 0.9 | 7.8 | 0.00 | 0.14 | 0.14 | 77 | 1012.6 |
| 20260903172123 | 90 | 34 | 3.5 | 7.8 | 0.00 | 0.14 | 0.14 | 77 | 1012.5 |
| 20260903172024 | 90 | 59 | 3.5 | 8.7 | 0.00 | 0.14 | 0.14 | 77 | 1012.4 |
| 20260903171903 | 90 | 59 | 3.5 | 8.7 | 0.00 | 0.14 | 0.14 | 77 | 1012.4 |
| 20260903171803 | 90 | 73 | 3.5 | 9.6 | 0.00 | 0.14 | 0.14 | 77 | 1012.3 |
| 20260903171703 | 90 | 80 | 2.6 | 9.6 | 0.00 | 0.14 | 0.14 | 78 | 1012.3 |
| 20260903171603 | 90 | 68 | 2.6 | 9.6 | 0.00 | 0.14 | 0.14 | 78 | 1012.2 |
| 20260903171502 | 90 | 63 | 3.5 | 9.6 | 0.00 | 0.14 | 0.14 | 78 | 1012.2 |
| 20260903171403 | 90 | 37 | 4.3 | 9.6 | 0.00 | 0.14 | 0.14 | 79 | 1012.2 |
| 20260903171302 | 89 | 55 | 5.2 | 9.6 | 0.00 | 0.14 | 0.14 | 79 | 1012.1 |
| 20260903171203 | 89 | 47 | 6.1 | 9.6 | 0.00 | 0.14 | 0.14 | 79 | 1012.1 |
| 20260903171104 | 89 | 59 | 6.1 | 9.6 | 0.00 | 0.14 | 0.14 | 81 | 1012.2 |
| 20260903171004 | 89 | 66 | 7.0 | 10.4 | 0.00 | 0.14 | 0.14 | 81 | 1012.2 |
| 20260903170903 | 88 | 90 | 6.1 | 10.4 | 0.00 | 0.14 | 0.14 | 82 | 1012.3 |
| 20260903170802 | 88 | 86 | 5.2 | 10.4 | 0.00 | 0.14 | 0.14 | 82 | 1012.3 |
| 20260903170702 | 88 | 78 | 5.2 | 10.4 | 0.00 | 0.14 | 0.14 | 83 | 1012.4 |
| 20260903170602 | 88 | 83 | 5.2 | 10.4 | 0.00 | 0.14 | 0.14 | 83 | 1012.4 |
| 20260903170502 | 87 | 96 | 6.1 | 10.4 | 0.00 | 0.14 | 0.14 | 83 | 1012.4 |
| 20260903170402 | 87 | 90 | 6.1 | 10.4 | 0.00 | 0.14 | 0.14 | 83 | 1012.5 |
| 20260903170303 | 87 | 93 | 6.1 | 10.4 | 0.00 | 0.14 | 0.14 | 83 | 1012.5 |
| 20260903170203 | 87 | 73 | 6.1 | 10.4 | 0.00 | 0.14 | 0.14 | 83 | 1012.6 |
| 20260903170003 | 87 | 93 | 3.5 | 9.6 | 0.00 | 0.14 | 0.14 | 84 | 1012.6 |
| 20260903165902 | 87 | 99 | 4.3 | 9.6 | 0.00 | 0.14 | 0.14 | 84 | 1012.5 |
| 20260903165802 | 87 | 111 | 5.2 | 9.6 | 0.00 | 0.14 | 0.14 | 84 | 1012.6 |
| 20260903165701 | 87 | 97 | 6.1 | 9.6 | 0.00 | 0.14 | 0.14 | 85 | 1012.5 |
| 20260903165602 | 87 | 102 | 5.2 | 9.6 | 0.00 | 0.14 | 0.14 | 86 | 1012.6 |
| 20260903165503 | 86 | 111 | 5.2 | 9.6 | 0.00 | 0.14 | 0.14 | 86 | 1012.5 |
| 20260903165404 | 86 | 117 | 6.1 | 9.6 | 0.00 | 0.14 | 0.14 | 87 | 1012.5 |
| 20260903165305 | 86 | 99 | 6.1 | 9.6 | 0.00 | 0.14 | 0.14 | 87 | 1012.6 |
| 20260903165202 | 86 | 78 | 6.1 | 9.6 | 0.00 | 0.14 | 0.14 | 87 | 1012.6 |
| 20260903165102 | 86 | 100 | 6.1 | 9.6 | 0.00 | 0.14 | 0.14 | 87 | 1012.5 |
| 20260903165004 | 86 | 93 | 6.1 | 9.6 | 0.00 | 0.14 | 0.14 | 87 | 1012.7 |
| 20260903164903 | 86 | 75 | 7.0 | 9.6 | 0.00 | 0.14 | 0.14 | 88 | 1012.6 |
| 20260903164803 | 86 | 97 | 7.0 | 9.6 | 0.00 | 0.14 | 0.14 | 88 | 1012.7 |
| 20260903164703 | 86 | 87 | 6.1 | 8.7 | 0.00 | 0.14 | 0.14 | 88 | 1012.7 |
| 20260903164602 | 86 | 96 | 6.1 | 8.7 | 0.00 | 0.14 | 0.14 | 88 | 1012.7 |
| 20260903164504 | 86 | 90 | 5.2 | 8.7 | 0.00 | 0.14 | 0.14 | 89 | 1012.7 |
| 20260903164402 | 85 | 63 | 5.2 | 8.7 | 0.00 | 0.14 | 0.14 | 89 | 1012.7 |
| 20260903164303 | 85 | 49 | 5.2 | 8.7 | 0.00 | 0.14 | 0.14 | 89 | 1012.7 |
| 20260903164203 | 85 | 59 | 6.1 | 10.4 | 0.00 | 0.14 | 0.14 | 89 | 1012.7 |
| 20260903164102 | 85 | 63 | 5.2 | 10.4 | 0.00 | 0.14 | 0.14 | 89 | 1012.7 |
| 20260903164004 | 85 | 111 | 5.2 | 10.4 | 0.00 | 0.14 | 0.14 | 89 | 1012.6 |
| 20260903163903 | 85 | 86 | 5.2 | 10.4 | 0.00 | 0.14 | 0.14 | 89 | 1012.7 |
| 20260903163803 | 85 | 99 | 5.2 | 10.4 | 0.00 | 0.14 | 0.14 | 88 | 1012.7 |
| 20260903163704 | 85 | 80 | 8.7 | 10.4 | 0.00 | 0.14 | 0.14 | 88 | 1012.7 |
| 20260903163603 | 85 | 80 | 8.7 | 10.4 | 0.00 | 0.14 | 0.14 | 88 | 1012.7 |
| 20260903163503 | 85 | 80 | 8.7 | 10.4 | 0.00 | 0.14 | 0.14 | 88 | 1012.7 |
| 20260903163403 | 85 | 80 | 8.7 | 10.4 | 0.00 | 0.14 | 0.14 | 88 | 1012.8 |
| 20260903163303 | 85 | 80 | 8.7 | 10.4 | 0.00 | 0.14 | 0.14 | 88 | 1012.7 |
| 20260903163202 | 85 | 96 | 7.8 | 11.3 | 0.00 | 0.14 | 0.14 | 88 | 1012.7 |
| 20260903163102 | 85 | 87 | 7.8 | 11.3 | 0.00 | 0.14 | 0.14 | 88 | 1012.8 |
| 20260903163003 | 85 | 82 | 7.8 | 11.3 | 0.00 | 0.14 | 0.14 | 88 | 1012.7 |
| 20260903162901 | 85 | 78 | 7.0 | 11.3 | 0.00 | 0.14 | 0.14 | 87 | 1012.8 |
| 20260903162802 | 86 | 89 | 7.0 | 11.3 | 0.00 | 0.14 | 0.14 | 87 | 1012.8 |
| 20260903162702 | 86 | 79 | 7.0 | 11.3 | 0.00 | 0.14 | 0.14 | 87 | 1012.7 |
| 20260903162603 | 86 | 80 | 7.0 | 11.3 | 0.00 | 0.14 | 0.14 | 87 | 1012.8 |
| 20260903162502 | 86 | 49 | 7.8 | 11.3 | 0.00 | 0.14 | 0.14 | 86 | 1012.8 |
| 20260903162403 | 86 | 79 | 7.8 | 11.3 | 0.00 | 0.14 | 0.14 | 86 | 1012.8 |
| 20260903162306 | 87 | 85 | 7.8 | 11.3 | 0.00 | 0.14 | 0.14 | 86 | 1012.7 |
| 20260903162203 | 87 | 87 | 5.2 | 10.4 | 0.00 | 0.14 | 0.14 | 86 | 1012.7 |
| 20260903162102 | 87 | 90 | 6.1 | 9.6 | 0.00 | 0.14 | 0.14 | 86 | 1012.7 |
| 20260903162003 | 87 | 58 | 6.1 | 9.6 | 0.00 | 0.14 | 0.14 | 85 | 1012.7 |
| 20260903161903 | 87 | 62 | 6.1 | 9.6 | 0.00 | 0.14 | 0.14 | 85 | 1012.7 |
| 20260903161802 | 87 | 71 | 6.1 | 9.6 | 0.00 | 0.14 | 0.14 | 84 | 1012.8 |
| 20260903161702 | 87 | 69 | 6.1 | 9.6 | 0.00 | 0.14 | 0.14 | 84 | 1012.7 |
| 20260903161602 | 87 | 76 | 7.0 | 9.6 | 0.00 | 0.14 | 0.14 | 84 | 1012.7 |
| 20260903161503 | 87 | 90 | 7.0 | 9.6 | 0.00 | 0.14 | 0.14 | 85 | 1012.6 |
| 20260903161403 | 87 | 78 | 5.2 | 8.7 | 0.00 | 0.14 | 0.14 | 85 | 1012.7 |
| 20260903161303 | 87 | 90 | 3.5 | 7.8 | 0.00 | 0.14 | 0.14 | 85 | 1012.7 |
| 20260903161203 | 87 | 100 | 4.3 | 7.8 | 0.00 | 0.14 | 0.14 | 85 | 1012.7 |
| 20260903161102 | 86 | 102 | 5.2 | 7.8 | 0.00 | 0.14 | 0.14 | 85 | 1012.7 |
| 20260903161004 | 86 | 94 | 4.3 | 7.8 | 0.00 | 0.14 | 0.14 | 85 | 1012.7 |
| 20260903160902 | 87 | 157 | 4.3 | 7.8 | 0.00 | 0.14 | 0.14 | 85 | 1012.7 |
| 20260903160803 | 87 | 97 | 4.3 | 6.1 | 0.00 | 0.14 | 0.14 | 85 | 1012.7 |
| 20260903160703 | 87 | 110 | 4.3 | 6.1 | 0.00 | 0.14 | 0.14 | 85 | 1012.8 |
| 20260903160603 | 87 | 99 | 3.5 | 6.1 | 0.00 | 0.14 | 0.14 | 85 | 1012.6 |
| 20260903160502 | 87 | 107 | 1.7 | 6.1 | 0.00 | 0.14 | 0.14 | 84 | 1012.6 |
| 20260903160402 | 87 | 103 | 2.6 | 6.1 | 0.00 | 0.14 | 0.14 | 84 | 1012.6 |
| 20260903160302 | 87 | 109 | 5.2 | 6.1 | 0.00 | 0.14 | 0.14 | 83 | 1012.6 |
| 20260903160202 | 87 | 125 | 5.2 | 6.1 | 0.00 | 0.14 | 0.14 | 84 | 1012.7 |
| 20260903160005 | 87 | 90 | 3.5 | 7.8 | 0.00 | 0.14 | 0.14 | 84 | 1012.6 |
| 20260903155903 | 87 | 87 | 2.6 | 7.8 | 0.00 | 0.14 | 0.14 | 84 | 1012.5 |
| 20260903155802 | 87 | 179 | 2.6 | 7.8 | 0.00 | 0.14 | 0.14 | 84 | 1012.5 |
| 20260903155702 | 87 | 133 | 2.6 | 7.8 | 0.00 | 0.14 | 0.14 | 84 | 1012.5 |
| 20260903155603 | 87 | 157 | 3.5 | 7.8 | 0.00 | 0.14 | 0.14 | 84 | 1012.5 |
| 20260903155503 | 87 | 134 | 4.3 | 7.8 | 0.00 | 0.14 | 0.14 | 84 | 1012.5 |
| 20260903155403 | 87 | 113 | 4.3 | 7.8 | 0.00 | 0.14 | 0.14 | 84 | 1012.5 |
| 20260903155306 | 87 | 110 | 5.2 | 7.8 | 0.00 | 0.14 | 0.14 | 85 | 1012.5 |
| 20260903155201 | 87 | 110 | 4.3 | 7.8 | 0.00 | 0.14 | 0.14 | 85 | 1012.5 |
| 20260903155103 | 87 | 103 | 3.5 | 6.1 | 0.00 | 0.14 | 0.14 | 85 | 1012.4 |
| 20260903155004 | 87 | 78 | 3.5 | 5.2 | 0.00 | 0.14 | 0.14 | 85 | 1012.4 |
| 20260903154903 | 87 | 145 | 2.6 | 5.2 | 0.00 | 0.14 | 0.14 | 86 | 1012.4 |
| 20260903154803 | 86 | 131 | 0.9 | 4.3 | 0.00 | 0.14 | 0.14 | 87 | 1012.4 |
| 20260903154703 | 86 | 106 | 0.9 | 3.5 | 0.00 | 0.14 | 0.14 | 86 | 1012.4 |
| 20260903154602 | 86 | 106 | 1.7 | 3.5 | 0.00 | 0.14 | 0.14 | 86 | 1012.4 |
| 20260903154505 | 86 | 103 | 1.7 | 3.5 | 0.00 | 0.14 | 0.14 | 87 | 1012.4 |
| 20260903154403 | 86 | 97 | 0.9 | 3.5 | 0.00 | 0.14 | 0.14 | 87 | 1012.3 |
| 20260903154302 | 86 | 104 | 0.0 | 3.5 | 0.00 | 0.14 | 0.14 | 87 | 1012.4 |
| 20260903154204 | 85 | 130 | 0.0 | 3.5 | 0.00 | 0.14 | 0.14 | 88 | 1012.3 |
| 20260903154103 | 85 | 130 | 0.0 | 3.5 | 0.00 | 0.14 | 0.14 | 88 | 1012.4 |
| 20260903154004 | 85 | 123 | 0.0 | 3.5 | 0.00 | 0.14 | 0.14 | 88 | 1012.4 |
| 20260903153902 | 84 | 123 | 0.0 | 3.5 | 0.00 | 0.14 | 0.14 | 92 | 1012.3 |
| 20260903153803 | 84 | 65 | 0.9 | 3.5 | 0.00 | 0.14 | 0.14 | 92 | 1012.3 |
| 20260903153703 | 84 | 65 | 0.9 | 3.5 | 0.00 | 0.14 | 0.14 | 92 | 1012.3 |
| 20260903153604 | 84 | 65 | 0.9 | 3.5 | 0.00 | 0.14 | 0.14 | 92 | 1012.3 |
| 20260903153503 | 84 | 65 | 0.9 | 3.5 | 0.00 | 0.14 | 0.14 | 92 | 1012.3 |
| 20260903153330 | 84 | 63 | 0.9 | 2.6 | 0.00 | 0.14 | 0.14 | 92 | 1012.3 |
| 20260903153230 | 83 | 38 | 0.0 | 0.9 | 0.00 | 0.14 | 0.14 | 91 | 1012.3 |
| 20260903153133 | 83 | 27 | 0.0 | 0.9 | 0.00 | 0.14 | 0.14 | 92 | 1012.3 |
| 20260903153031 | 83 | 25 | 0.0 | 0.9 | 0.00 | 0.14 | 0.14 | 92 | 1012.3 |
| 20260903152932 | 83 | 25 | 0.0 | 0.9 | 0.00 | 0.14 | 0.14 | 92 | 1012.4 |
| 20260903152831 | 83 | 25 | 0.0 | 0.9 | 0.00 | 0.14 | 0.14 | 93 | 1012.4 |
| 20260903152732 | 83 | 25 | 0.0 | 0.0 | 0.00 | 0.14 | 0.14 | 93 | 1012.3 |
| 20260903152631 | 83 | 27 | 0.0 | 0.0 | 0.00 | 0.14 | 0.14 | 93 | 1012.3 |
| 20260903152531 | 83 | 27 | 0.0 | 0.9 | 0.00 | 0.14 | 0.14 | 94 | 1012.3 |
| 20260903152432 | 83 | 25 | 0.0 | 0.9 | 0.00 | 0.14 | 0.14 | 95 | 1012.3 |
| 20260903152332 | 83 | 24 | 0.0 | 0.9 | 0.01 | 0.14 | 0.14 | 95 | 1012.4 |
| 20260903152231 | 83 | 24 | 0.0 | 0.9 | 0.01 | 0.14 | 0.14 | 94 | 1012.4 |
| 20260903152131 | 83 | 37 | 0.0 | 1.7 | 0.01 | 0.14 | 0.14 | 94 | 1012.4 |
| 20260903152031 | 83 | 38 | 0.0 | 1.7 | 0.01 | 0.14 | 0.14 | 95 | 1012.4 |
| 20260903151933 | 83 | 38 | 0.0 | 1.7 | 0.01 | 0.14 | 0.14 | 94 | 1012.3 |
| 20260903151831 | 83 | 38 | 0.0 | 1.7 | 0.02 | 0.14 | 0.14 | 94 | 1012.4 |
| 20260903151731 | 82 | 38 | 0.0 | 1.7 | 0.02 | 0.14 | 0.14 | 94 | 1012.3 |
| 20260903151632 | 83 | 38 | 0.9 | 1.7 | 0.02 | 0.14 | 0.14 | 95 | 1012.4 |
| 20260903151532 | 83 | 38 | 0.0 | 1.7 | 0.02 | 0.14 | 0.14 | 95 | 1012.4 |
| 20260903151431 | 83 | 38 | 0.0 | 1.7 | 0.02 | 0.14 | 0.14 | 95 | 1012.4 |
| 20260903151332 | 83 | 38 | 0.9 | 1.7 | 0.02 | 0.14 | 0.14 | 95 | 1012.4 |
| 20260903151231 | 82 | 38 | 0.9 | 1.7 | 0.02 | 0.14 | 0.14 | 95 | 1012.5 |
| 20260903151131 | 82 | 38 | 0.0 | 0.9 | 0.02 | 0.14 | 0.14 | 94 | 1012.4 |
| 20260903151031 | 82 | 38 | 0.0 | 0.9 | 0.02 | 0.14 | 0.14 | 95 | 1012.5 |
| 20260903150930 | 82 | 38 | 0.0 | 0.9 | 0.02 | 0.14 | 0.14 | 94 | 1012.5 |
| 20260903150832 | 82 | 38 | 0.0 | 0.9 | 0.02 | 0.14 | 0.14 | 95 | 1012.5 |
| 20260903150731 | 82 | 38 | 0.0 | 0.9 | 0.02 | 0.14 | 0.14 | 94 | 1012.5 |
| 20260903150632 | 82 | 38 | 0.0 | 0.9 | 0.02 | 0.14 | 0.14 | 94 | 1012.5 |
| 20260903150532 | 82 | 38 | 0.0 | 0.9 | 0.02 | 0.14 | 0.14 | 95 | 1012.5 |
| 20260903150430 | 82 | 38 | 0.0 | 0.9 | 0.02 | 0.14 | 0.14 | 94 | 1012.5 |
| 20260903150331 | 82 | 38 | 0.0 | 0.9 | 0.02 | 0.14 | 0.14 | 94 | 1012.5 |
| 20260903150231 | 82 | 38 | 0.0 | 0.9 | 0.02 | 0.14 | 0.14 | 94 | 1012.5 |
| 20260903150132 | 82 | 38 | 0.0 | 0.9 | 0.02 | 0.14 | 0.14 | 94 | 1012.5 |
| 20260903150031 | 82 | 38 | 0.9 | 0.9 | 0.02 | 0.14 | 0.14 | 95 | 1012.5 |
| 20260903145932 | 82 | 38 | 0.0 | 0.0 | 0.02 | 0.12 | 0.14 | 94 | 1012.5 |
| 20260903145832 | 82 | 38 | 0.0 | 0.0 | 0.02 | 0.12 | 0.14 | 94 | 1012.6 |
| 20260903145731 | 82 | 38 | 0.0 | 0.9 | 0.02 | 0.12 | 0.14 | 94 | 1012.5 |
| 20260903145632 | 82 | 38 | 0.0 | 1.7 | 0.02 | 0.12 | 0.14 | 94 | 1012.6 |
| 20260903145532 | 82 | 38 | 0.0 | 1.7 | 0.02 | 0.12 | 0.14 | 94 | 1012.6 |
| 20260903145432 | 82 | 38 | 0.0 | 1.7 | 0.02 | 0.12 | 0.14 | 94 | 1012.6 |
| 20260903145331 | 82 | 38 | 0.0 | 1.7 | 0.02 | 0.12 | 0.14 | 95 | 1012.6 |
| 20260903145229 | 82 | 38 | 0.0 | 1.7 | 0.02 | 0.12 | 0.14 | 95 | 1012.7 |
| 20260903145127 | 82 | 38 | 0.0 | 2.6 | 0.02 | 0.12 | 0.14 | 95 | 1012.6 |
| 20260903145025 | 81 | 38 | 0.0 | 3.5 | 0.02 | 0.12 | 0.14 | 94 | 1012.7 |
| 20260903144921 | 81 | 38 | 0.0 | 3.5 | 0.02 | 0.12 | 0.14 | 94 | 1012.7 |
| 20260903144820 | 81 | 38 | 0.9 | 3.5 | 0.02 | 0.12 | 0.14 | 94 | 1012.7 |
| 20260903144721 | 81 | 38 | 0.9 | 3.5 | 0.02 | 0.12 | 0.14 | 94 | 1012.7 |
| 20260903144620 | 81 | 38 | 0.9 | 3.5 | 0.02 | 0.12 | 0.14 | 94 | 1012.8 |
| 20260903144521 | 81 | 38 | 0.9 | 3.5 | 0.02 | 0.12 | 0.14 | 94 | 1012.7 |
| 20260903144419 | 81 | 38 | 0.9 | 3.5 | 0.02 | 0.12 | 0.14 | 94 | 1012.7 |
| 20260903144320 | 81 | 38 | 1.7 | 3.5 | 0.02 | 0.12 | 0.14 | 94 | 1012.7 |
| 20260903144221 | 81 | 38 | 2.6 | 3.5 | 0.02 | 0.12 | 0.14 | 94 | 1012.8 |
| 20260903144120 | 82 | 38 | 2.6 | 3.5 | 0.02 | 0.12 | 0.14 | 94 | 1012.8 |
| 20260903144021 | 82 | 45 | 2.6 | 3.5 | 0.02 | 0.12 | 0.14 | 94 | 1012.9 |
| 20260903143921 | 82 | 45 | 2.6 | 5.2 | 0.02 | 0.12 | 0.14 | 94 | 1012.9 |
| 20260903143820 | 82 | 45 | 2.6 | 5.2 | 0.02 | 0.12 | 0.14 | 94 | 1012.8 |
| 20260903143721 | 82 | 45 | 2.6 | 5.2 | 0.02 | 0.12 | 0.14 | 94 | 1012.9 |
| 20260903143619 | 82 | 45 | 2.6 | 5.2 | 0.02 | 0.12 | 0.14 | 94 | 1012.8 |
| 20260903143520 | 82 | 45 | 2.6 | 5.2 | 0.02 | 0.12 | 0.14 | 94 | 1012.9 |
| 20260903143420 | 82 | 45 | 2.6 | 5.2 | 0.02 | 0.12 | 0.14 | 94 | 1012.9 |
| 20260903143319 | 81 | 56 | 2.6 | 5.2 | 0.02 | 0.12 | 0.14 | 94 | 1012.9 |
| 20260903143220 | 81 | 56 | 2.6 | 6.1 | 0.02 | 0.12 | 0.14 | 94 | 1012.9 |
| 20260903143121 | 81 | 55 | 3.5 | 7.8 | 0.02 | 0.12 | 0.14 | 93 | 1012.9 |
| 20260903143019 | 81 | 82 | 3.5 | 7.8 | 0.02 | 0.12 | 0.14 | 94 | 1012.9 |
| 20260903142919 | 81 | 93 | 3.5 | 7.8 | 0.02 | 0.12 | 0.14 | 94 | 1012.9 |
| 20260903142820 | 81 | 73 | 3.5 | 7.8 | 0.02 | 0.12 | 0.14 | 94 | 1012.8 |
| 20260903142720 | 81 | 83 | 3.5 | 7.8 | 0.02 | 0.12 | 0.14 | 94 | 1012.9 |
| 20260903142619 | 81 | 92 | 4.3 | 7.8 | 0.02 | 0.12 | 0.14 | 94 | 1012.8 |
| 20260903142518 | 81 | 75 | 4.3 | 7.8 | 0.02 | 0.12 | 0.14 | 94 | 1013.0 |
| 20260903142416 | 81 | 89 | 3.5 | 7.8 | 0.02 | 0.12 | 0.14 | 94 | 1013.0 |
| 20260903142314 | 81 | 93 | 4.3 | 7.8 | 0.01 | 0.12 | 0.13 | 94 | 1013.0 |
| 20260903142214 | 82 | 106 | 4.3 | 7.8 | 0.01 | 0.12 | 0.13 | 94 | 1013.0 |
| 20260903142108 | 82 | 97 | 3.5 | 5.2 | 0.01 | 0.12 | 0.13 | 94 | 1013.0 |
| 20260903142009 | 82 | 99 | 3.5 | 5.2 | 0.01 | 0.12 | 0.13 | 94 | 1012.9 |
| 20260903141908 | 82 | 103 | 2.6 | 5.2 | 0.01 | 0.12 | 0.12 | 94 | 1013.0 |
| 20260903141806 | 82 | 104 | 1.7 | 5.2 | 0.00 | 0.12 | 0.12 | 94 | 1013.0 |
| 20260903141703 | 82 | 118 | 2.6 | 5.2 | 0.00 | 0.12 | 0.12 | 94 | 1013.0 |
| 20260903141605 | 82 | 117 | 3.5 | 5.2 | 0.00 | 0.12 | 0.12 | 94 | 1013.0 |
| 20260903141503 | 82 | 97 | 3.5 | 5.2 | 0.00 | 0.12 | 0.12 | 94 | 1013.0 |
| 20260903141401 | 82 | 96 | 3.5 | 4.3 | 0.00 | 0.12 | 0.12 | 94 | 1013.0 |
| 20260903141302 | 82 | 94 | 4.3 | 4.3 | 0.00 | 0.12 | 0.12 | 94 | 1013.0 |
| 20260903141203 | 82 | 93 | 3.5 | 4.3 | 0.00 | 0.12 | 0.12 | 94 | 1013.0 |
| 20260903141102 | 82 | 92 | 2.6 | 4.3 | 0.00 | 0.12 | 0.12 | 95 | 1012.9 |
| 20260903141003 | 82 | 107 | 2.6 | 4.3 | 0.00 | 0.12 | 0.12 | 95 | 1012.9 |
| 20260903140902 | 82 | 93 | 3.5 | 4.3 | 0.00 | 0.12 | 0.12 | 95 | 1013.0 |
| 20260903140803 | 82 | 93 | 3.5 | 4.3 | 0.00 | 0.12 | 0.12 | 95 | 1012.9 |
| 20260903140703 | 82 | 93 | 3.5 | 4.3 | 0.00 | 0.12 | 0.12 | 95 | 1013.0 |
| 20260903140603 | 82 | 93 | 3.5 | 4.3 | 0.00 | 0.12 | 0.12 | 95 | 1013.0 |
| 20260903140502 | 82 | 66 | 2.6 | 3.5 | 0.00 | 0.12 | 0.12 | 95 | 1013.0 |
| 20260903140403 | 82 | 63 | 2.6 | 3.5 | 0.00 | 0.12 | 0.12 | 95 | 1013.0 |
| 20260903140303 | 82 | 56 | 2.6 | 3.5 | 0.00 | 0.12 | 0.12 | 95 | 1013.0 |
| 20260903140203 | 82 | 56 | 3.5 | 3.5 | 0.00 | 0.12 | 0.12 | 95 | 1012.9 |
| 20260903140004 | 81 | 52 | 2.6 | 3.5 | 0.00 | 0.12 | 0.12 | 95 | 1012.9 |
| 20260903135903 | 81 | 52 | 2.6 | 3.5 | 0.00 | 0.12 | 0.12 | 94 | 1012.9 |
| 20260903135804 | 81 | 52 | 1.7 | 2.6 | 0.00 | 0.12 | 0.12 | 94 | 1012.8 |
| 20260903135702 | 81 | 52 | 1.7 | 2.6 | 0.00 | 0.12 | 0.12 | 94 | 1012.8 |
| 20260903135602 | 81 | 52 | 1.7 | 2.6 | 0.00 | 0.12 | 0.12 | 94 | 1012.8 |
| 20260903135502 | 81 | 52 | 1.7 | 1.7 | 0.00 | 0.12 | 0.12 | 94 | 1012.8 |
| 20260903135403 | 81 | 52 | 0.0 | 0.9 | 0.00 | 0.12 | 0.12 | 94 | 1012.8 |
| 20260903135306 | 81 | 52 | 0.0 | 0.9 | 0.00 | 0.12 | 0.12 | 94 | 1012.8 |
| 20260903135203 | 81 | 52 | 0.0 | 0.9 | 0.00 | 0.12 | 0.12 | 94 | 1012.8 |
| 20260903135103 | 81 | 52 | 0.0 | 0.9 | 0.00 | 0.12 | 0.12 | 94 | 1012.8 |
| 20260903135003 | 81 | 52 | 0.0 | 0.9 | 0.00 | 0.12 | 0.12 | 94 | 1012.8 |
| 20260903134902 | 81 | 52 | 0.0 | 0.9 | 0.00 | 0.12 | 0.12 | 94 | 1012.7 |
| 20260903134802 | 82 | 52 | 0.0 | 0.9 | 0.00 | 0.12 | 0.12 | 94 | 1012.7 |
| 20260903134703 | 82 | 52 | 0.0 | 0.9 | 0.00 | 0.12 | 0.12 | 94 | 1012.7 |
| 20260903134603 | 81 | 52 | 0.0 | 0.9 | 0.00 | 0.12 | 0.12 | 94 | 1012.7 |
| 20260903134503 | 82 | 52 | 0.0 | 0.0 | 0.00 | 0.12 | 0.12 | 94 | 1012.7 |
| 20260903134403 | 81 | 52 | 0.0 | 1.7 | 0.00 | 0.12 | 0.12 | 94 | 1012.6 |
| 20260903134301 | 82 | 52 | 0.0 | 1.7 | 0.00 | 0.12 | 0.12 | 94 | 1012.6 |
| 20260903134204 | 82 | 52 | 0.0 | 3.5 | 0.00 | 0.12 | 0.12 | 94 | 1012.7 |
| 20260903134103 | 82 | 52 | 0.0 | 3.5 | 0.00 | 0.12 | 0.12 | 94 | 1012.7 |
| 20260903134002 | 82 | 52 | 0.0 | 3.5 | 0.00 | 0.12 | 0.12 | 94 | 1012.6 |
| 20260903133903 | 82 | 52 | 0.0 | 3.5 | 0.00 | 0.12 | 0.12 | 94 | 1012.7 |
| 20260903133802 | 82 | 52 | 0.0 | 3.5 | 0.00 | 0.12 | 0.12 | 94 | 1012.6 |
| 20260903133704 | 82 | 52 | 0.0 | 3.5 | 0.00 | 0.12 | 0.12 | 94 | 1012.7 |
| 20260903133603 | 82 | 52 | 0.0 | 3.5 | 0.00 | 0.12 | 0.12 | 94 | 1012.7 |
| 20260903133503 | 82 | 52 | 0.9 | 3.5 | 0.00 | 0.12 | 0.12 | 94 | 1012.8 |
| 20260903133402 | 82 | 52 | 1.7 | 3.5 | 0.00 | 0.12 | 0.12 | 94 | 1012.8 |
| 20260903133303 | 82 | 52 | 2.6 | 3.5 | 0.00 | 0.12 | 0.12 | 94 | 1012.8 |
| 20260903133203 | 82 | 51 | 2.6 | 3.5 | 0.00 | 0.12 | 0.12 | 94 | 1012.8 |
| 20260903133103 | 82 | 51 | 2.6 | 3.5 | 0.00 | 0.12 | 0.12 | 94 | 1012.9 |
| 20260903133003 | 82 | 51 | 2.6 | 3.5 | 0.00 | 0.12 | 0.12 | 94 | 1012.9 |
| 20260903132903 | 82 | 51 | 2.6 | 3.5 | 0.00 | 0.12 | 0.12 | 94 | 1012.8 |
| 20260903132803 | 82 | 49 | 2.6 | 2.6 | 0.00 | 0.12 | 0.12 | 94 | 1012.8 |
| 20260903132704 | 82 | 49 | 2.6 | 2.6 | 0.00 | 0.12 | 0.12 | 94 | 1012.9 |
| 20260903132603 | 82 | 49 | 2.6 | 2.6 | 0.00 | 0.12 | 0.12 | 94 | 1012.9 |
| 20260903132503 | 82 | 49 | 2.6 | 3.5 | 0.00 | 0.12 | 0.12 | 94 | 1013.0 |
| 20260903132403 | 82 | 49 | 2.6 | 3.5 | 0.00 | 0.12 | 0.12 | 94 | 1013.0 |
| 20260903132306 | 82 | 49 | 2.6 | 3.5 | 0.00 | 0.12 | 0.12 | 94 | 1012.9 |
| 20260903132203 | 82 | 49 | 2.6 | 3.5 | 0.00 | 0.12 | 0.12 | 94 | 1012.9 |
| 20260903132104 | 82 | 49 | 2.6 | 3.5 | 0.00 | 0.12 | 0.12 | 94 | 1012.9 |
| 20260903132005 | 82 | 49 | 2.6 | 3.5 | 0.00 | 0.12 | 0.12 | 94 | 1012.9 |
| 20260903131902 | 81 | 49 | 1.7 | 3.5 | 0.00 | 0.12 | 0.12 | 94 | 1012.8 |
| 20260903131802 | 81 | 49 | 1.7 | 3.5 | 0.00 | 0.12 | 0.12 | 93 | 1012.8 |
| 20260903131702 | 81 | 85 | 2.6 | 3.5 | 0.00 | 0.12 | 0.12 | 93 | 1012.9 |
| 20260903131604 | 81 | 85 | 2.6 | 3.5 | 0.00 | 0.12 | 0.12 | 94 | 1012.9 |
| 20260903131504 | 81 | 85 | 1.7 | 3.5 | 0.00 | 0.12 | 0.12 | 94 | 1012.9 |
| 20260903131404 | 81 | 85 | 2.6 | 3.5 | 0.00 | 0.12 | 0.12 | 94 | 1012.8 |
| 20260903131259 | 81 | 85 | 2.6 | 3.5 | 0.00 | 0.12 | 0.12 | 94 | 1012.8 |
| 20260903131159 | 81 | 85 | 2.6 | 3.5 | 0.00 | 0.12 | 0.12 | 93 | 1012.8 |
| 20260903131057 | 81 | 83 | 1.7 | 3.5 | 0.00 | 0.12 | 0.12 | 93 | 1012.7 |
| 20260903130954 | 81 | 82 | 1.7 | 2.6 | 0.00 | 0.12 | 0.12 | 93 | 1012.7 |
| 20260903130851 | 81 | 82 | 1.7 | 2.6 | 0.00 | 0.12 | 0.12 | 93 | 1012.7 |
| 20260903130748 | 81 | 82 | 1.7 | 2.6 | 0.00 | 0.12 | 0.12 | 93 | 1012.7 |
| 20260903130649 | 81 | 82 | 1.7 | 2.6 | 0.00 | 0.12 | 0.12 | 94 | 1012.6 |
| 20260903130543 | 81 | 80 | 0.0 | 1.7 | 0.00 | 0.12 | 0.12 | 94 | 1012.6 |
| 20260903130442 | 81 | 80 | 0.0 | 0.0 | 0.00 | 0.12 | 0.12 | 94 | 1012.5 |
| 20260903130337 | 81 | 80 | 0.0 | 0.0 | 0.00 | 0.12 | 0.12 | 94 | 1012.4 |
| 20260903130234 | 81 | 80 | 0.0 | 0.0 | 0.00 | 0.12 | 0.12 | 94 | 1012.4 |
| 20260903130132 | 81 | 80 | 0.0 | 0.0 | 0.00 | 0.12 | 0.12 | 93 | 1012.4 |
| 20260903130034 | 81 | 80 | 0.0 | 0.0 | 0.00 | 0.12 | 0.12 | 94 | 1012.4 |
| 20260903125931 | 81 | 80 | 0.0 | 0.0 | 0.00 | 0.12 | 0.12 | 94 | 1012.3 |
| 20260903125831 | 81 | 80 | 0.0 | 0.0 | 0.00 | 0.12 | 0.12 | 93 | 1012.3 |
| 20260903125733 | 81 | 80 | 0.0 | 0.9 | 0.01 | 0.12 | 0.12 | 93 | 1012.3 |
| 20260903125632 | 81 | 80 | 0.0 | 1.7 | 0.01 | 0.12 | 0.12 | 93 | 1012.3 |
| 20260903125531 | 81 | 80 | 0.0 | 1.7 | 0.01 | 0.12 | 0.12 | 93 | 1012.3 |
| 20260903125431 | 81 | 80 | 0.0 | 1.7 | 0.01 | 0.12 | 0.12 | 93 | 1012.3 |
| 20260903125331 | 81 | 80 | 0.0 | 1.7 | 0.01 | 0.12 | 0.12 | 93 | 1012.3 |
| 20260903125232 | 81 | 80 | 0.0 | 1.7 | 0.01 | 0.12 | 0.12 | 93 | 1012.3 |
| 20260903125131 | 81 | 80 | 0.0 | 1.7 | 0.01 | 0.12 | 0.12 | 93 | 1012.3 |
| 20260903125033 | 81 | 80 | 0.0 | 1.7 | 0.01 | 0.12 | 0.12 | 93 | 1012.3 |
| 20260903124931 | 81 | 80 | 0.0 | 1.7 | 0.01 | 0.12 | 0.12 | 93 | 1012.4 |
| 20260903124831 | 81 | 80 | 0.9 | 1.7 | 0.01 | 0.12 | 0.12 | 93 | 1012.4 |
| 20260903124732 | 81 | 80 | 0.9 | 1.7 | 0.01 | 0.12 | 0.12 | 93 | 1012.4 |
| 20260903124632 | 81 | 80 | 0.0 | 0.9 | 0.01 | 0.12 | 0.12 | 93 | 1012.3 |
| 20260903124532 | 81 | 80 | 0.0 | 1.7 | 0.01 | 0.12 | 0.12 | 93 | 1012.4 |
| 20260903124432 | 81 | 80 | 0.0 | 1.7 | 0.01 | 0.12 | 0.12 | 93 | 1012.3 |
| 20260903124332 | 81 | 80 | 0.0 | 1.7 | 0.01 | 0.12 | 0.12 | 93 | 1012.4 |
| 20260903124233 | 81 | 80 | 0.0 | 2.6 | 0.01 | 0.12 | 0.12 | 93 | 1012.4 |